<?xml version="1.0" encoding="UTF-8" standalone="no" ?>
<gpx xmlns="http://www.topografix.com/GPX/1/1" xmlns:xsi="http://www.w3.org/2001/XMLSchema-instance" xsi:schemaLocation="http://www.topografix.com/GPX/1/1 http://www.topografix.com/GPX/1/1/gpx.xsd" version="1.1" creator="VisuGPX - https://www.visugpx.com">
  <metadata>
    <name>--Monnières-- OR-5853772:epure</name>
  </metadata>
  <trk>
    <name><![CDATA[--Monnières-- OR-5853772:epure]]></name>
    <trkseg>
      <trkpt lat="47.13589" lon="-1.36241">
        <ele>10</ele>
        <time>2016-04-28T01:45:42Z</time>
      </trkpt>
      <trkpt lat="47.13608" lon="-1.36377">
        <ele>11</ele>
        <time>2016-04-28T01:47:42Z</time>
      </trkpt>
      <trkpt lat="47.136" lon="-1.36512">
        <ele>17</ele>
        <time>2016-04-28T01:49:42Z</time>
      </trkpt>
      <trkpt lat="47.13637" lon="-1.36636">
        <ele>21</ele>
        <time>2016-04-28T01:51:42Z</time>
      </trkpt>
      <trkpt lat="47.13703" lon="-1.36732">
        <ele>23</ele>
        <time>2016-04-28T01:53:42Z</time>
      </trkpt>
      <trkpt lat="47.13786" lon="-1.36788">
        <ele>17</ele>
        <time>2016-04-28T01:55:42Z</time>
      </trkpt>
      <trkpt lat="47.13848" lon="-1.3689">
        <ele>16</ele>
        <time>2016-04-28T01:57:42Z</time>
      </trkpt>
      <trkpt lat="47.13888" lon="-1.37013">
        <ele>16</ele>
        <time>2016-04-28T01:59:42Z</time>
      </trkpt>
      <trkpt lat="47.13945" lon="-1.3712">
        <ele>14</ele>
        <time>2016-04-28T02:01:42Z</time>
      </trkpt>
      <trkpt lat="47.1397" lon="-1.37244">
        <ele>16</ele>
        <time>2016-04-28T02:03:42Z</time>
      </trkpt>
      <trkpt lat="47.14062" lon="-1.3729">
        <ele>13</ele>
        <time>2016-04-28T02:05:42Z</time>
      </trkpt>
      <trkpt lat="47.14159" lon="-1.37284">
        <ele>9</ele>
        <time>2016-04-28T02:07:42Z</time>
      </trkpt>
      <trkpt lat="47.14249" lon="-1.37302">
        <ele>10</ele>
        <time>2016-04-28T02:09:42Z</time>
      </trkpt>
      <trkpt lat="47.14321" lon="-1.3739">
        <ele>10</ele>
        <time>2016-04-28T02:11:42Z</time>
      </trkpt>
      <trkpt lat="47.14448" lon="-1.37893">
        <ele>9</ele>
        <time>2016-04-28T02:13:42Z</time>
      </trkpt>
      <trkpt lat="47.14477" lon="-1.38026">
        <ele>9</ele>
        <time>2016-04-28T02:15:42Z</time>
      </trkpt>
      <trkpt lat="47.14412" lon="-1.38126">
        <ele>10</ele>
        <time>2016-04-28T02:17:42Z</time>
      </trkpt>
      <trkpt lat="47.14357" lon="-1.38242">
        <ele>9</ele>
        <time>2016-04-28T02:19:42Z</time>
      </trkpt>
      <trkpt lat="47.1428" lon="-1.38504">
        <ele>8</ele>
        <time>2016-04-28T02:21:42Z</time>
      </trkpt>
      <trkpt lat="47.14205" lon="-1.38568">
        <ele>9</ele>
        <time>2016-04-28T02:23:42Z</time>
      </trkpt>
      <trkpt lat="47.14155" lon="-1.38682">
        <ele>10</ele>
        <time>2016-04-28T02:25:42Z</time>
      </trkpt>
      <trkpt lat="47.14175" lon="-1.38806">
        <ele>6</ele>
        <time>2016-04-28T02:27:42Z</time>
      </trkpt>
      <trkpt lat="47.14168" lon="-1.38916">
        <ele>9</ele>
        <time>2016-04-28T02:29:42Z</time>
      </trkpt>
      <trkpt lat="47.14159" lon="-1.3899">
        <ele>19</ele>
        <time>2016-04-28T02:31:42Z</time>
      </trkpt>
      <trkpt lat="47.14218" lon="-1.39089">
        <ele>17</ele>
        <time>2016-04-28T02:33:42Z</time>
      </trkpt>
      <trkpt lat="47.14285" lon="-1.39188">
        <ele>12</ele>
        <time>2016-04-28T02:35:42Z</time>
      </trkpt>
      <trkpt lat="47.14322" lon="-1.39294">
        <ele>10</ele>
        <time>2016-04-28T02:37:42Z</time>
      </trkpt>
      <trkpt lat="47.1432" lon="-1.39429">
        <ele>9</ele>
        <time>2016-04-28T02:39:42Z</time>
      </trkpt>
      <trkpt lat="47.14283" lon="-1.39576">
        <ele>9</ele>
        <time>2016-04-28T02:41:42Z</time>
      </trkpt>
      <trkpt lat="47.14274" lon="-1.39694">
        <ele>8</ele>
        <time>2016-04-28T02:43:42Z</time>
      </trkpt>
      <trkpt lat="47.14298" lon="-1.39821">
        <ele>11</ele>
        <time>2016-04-28T02:45:42Z</time>
      </trkpt>
      <trkpt lat="47.1438" lon="-1.39882">
        <ele>16</ele>
        <time>2016-04-28T02:47:42Z</time>
      </trkpt>
      <trkpt lat="47.14482" lon="-1.39886">
        <ele>20</ele>
        <time>2016-04-28T02:49:42Z</time>
      </trkpt>
      <trkpt lat="47.14569" lon="-1.3982">
        <ele>19</ele>
        <time>2016-04-28T02:51:42Z</time>
      </trkpt>
      <trkpt lat="47.14624" lon="-1.39712">
        <ele>16</ele>
        <time>2016-04-28T02:53:42Z</time>
      </trkpt>
      <trkpt lat="47.147" lon="-1.3963">
        <ele>12</ele>
        <time>2016-04-28T02:55:42Z</time>
      </trkpt>
      <trkpt lat="47.14804" lon="-1.3958">
        <ele>7</ele>
        <time>2016-04-28T02:57:42Z</time>
      </trkpt>
      <trkpt lat="47.14874" lon="-1.39632">
        <ele>5</ele>
        <time>2016-04-28T02:59:42Z</time>
      </trkpt>
      <trkpt lat="47.14892" lon="-1.39762">
        <ele>6</ele>
        <time>2016-04-28T03:01:42Z</time>
      </trkpt>
      <trkpt lat="47.14877" lon="-1.3988">
        <ele>8</ele>
        <time>2016-04-28T03:03:42Z</time>
      </trkpt>
      <trkpt lat="47.14831" lon="-1.3997">
        <ele>12</ele>
        <time>2016-04-28T03:05:42Z</time>
      </trkpt>
      <trkpt lat="47.1483" lon="-1.40095">
        <ele>11</ele>
        <time>2016-04-28T03:07:42Z</time>
      </trkpt>
      <trkpt lat="47.14781" lon="-1.40149">
        <ele>17</ele>
        <time>2016-04-28T03:09:42Z</time>
      </trkpt>
      <trkpt lat="47.14721" lon="-1.40199">
        <ele>26</ele>
        <time>2016-04-28T03:11:42Z</time>
      </trkpt>
      <trkpt lat="47.14714" lon="-1.40333">
        <ele>28</ele>
        <time>2016-04-28T03:13:42Z</time>
      </trkpt>
      <trkpt lat="47.14693" lon="-1.4046">
        <ele>34</ele>
        <time>2016-04-28T03:15:42Z</time>
      </trkpt>
      <trkpt lat="47.14709" lon="-1.40594">
        <ele>33</ele>
        <time>2016-04-28T03:17:42Z</time>
      </trkpt>
      <trkpt lat="47.14737" lon="-1.40722">
        <ele>39</ele>
        <time>2016-04-28T03:19:42Z</time>
      </trkpt>
      <trkpt lat="47.14794" lon="-1.40827">
        <ele>39</ele>
        <time>2016-04-28T03:21:42Z</time>
      </trkpt>
      <trkpt lat="47.14944" lon="-1.40988">
        <ele>38</ele>
        <time>2016-04-28T03:23:42Z</time>
      </trkpt>
      <trkpt lat="47.15029" lon="-1.41028">
        <ele>34</ele>
        <time>2016-04-28T03:25:42Z</time>
      </trkpt>
      <trkpt lat="47.15118" lon="-1.41059">
        <ele>30</ele>
        <time>2016-04-28T03:27:42Z</time>
      </trkpt>
      <trkpt lat="47.15207" lon="-1.41042">
        <ele>19</ele>
        <time>2016-04-28T03:29:42Z</time>
      </trkpt>
      <trkpt lat="47.15236" lon="-1.41179">
        <ele>13</ele>
        <time>2016-04-28T03:31:42Z</time>
      </trkpt>
      <trkpt lat="47.15178" lon="-1.41258">
        <ele>11</ele>
        <time>2016-04-28T03:33:42Z</time>
      </trkpt>
      <trkpt lat="47.15013" lon="-1.41417">
        <ele>17</ele>
        <time>2016-04-28T03:35:42Z</time>
      </trkpt>
      <trkpt lat="47.14933" lon="-1.41466">
        <ele>15</ele>
        <time>2016-04-28T03:37:42Z</time>
      </trkpt>
      <trkpt lat="47.14868" lon="-1.41364">
        <ele>26</ele>
        <time>2016-04-28T03:39:42Z</time>
      </trkpt>
      <trkpt lat="47.14811" lon="-1.41266">
        <ele>28</ele>
        <time>2016-04-28T03:41:42Z</time>
      </trkpt>
      <trkpt lat="47.14724" lon="-1.41232">
        <ele>28</ele>
        <time>2016-04-28T03:43:42Z</time>
      </trkpt>
      <trkpt lat="47.14676" lon="-1.41319">
        <ele>30</ele>
        <time>2016-04-28T03:45:42Z</time>
      </trkpt>
      <trkpt lat="47.14618" lon="-1.41395">
        <ele>33</ele>
        <time>2016-04-28T03:47:42Z</time>
      </trkpt>
      <trkpt lat="47.14544" lon="-1.41447">
        <ele>38</ele>
        <time>2016-04-28T03:49:42Z</time>
      </trkpt>
      <trkpt lat="47.14479" lon="-1.41514">
        <ele>41</ele>
        <time>2016-04-28T03:51:42Z</time>
      </trkpt>
      <trkpt lat="47.14472" lon="-1.41646">
        <ele>41</ele>
        <time>2016-04-28T03:53:42Z</time>
      </trkpt>
      <trkpt lat="47.14473" lon="-1.41778">
        <ele>38</ele>
        <time>2016-04-28T03:55:42Z</time>
      </trkpt>
      <trkpt lat="47.14502" lon="-1.41869">
        <ele>32</ele>
        <time>2016-04-28T03:57:42Z</time>
      </trkpt>
      <trkpt lat="47.1457" lon="-1.41936">
        <ele>19</ele>
        <time>2016-04-28T03:59:42Z</time>
      </trkpt>
      <trkpt lat="47.14604" lon="-1.42056">
        <ele>16</ele>
        <time>2016-04-28T04:01:42Z</time>
      </trkpt>
      <trkpt lat="47.1463" lon="-1.42177">
        <ele>15</ele>
        <time>2016-04-28T04:03:42Z</time>
      </trkpt>
      <trkpt lat="47.14611" lon="-1.4219">
        <ele>17</ele>
        <time>2016-04-28T04:05:42Z</time>
      </trkpt>
      <trkpt lat="47.14626" lon="-1.42214">
        <ele>17</ele>
        <time>2016-04-28T04:07:42Z</time>
      </trkpt>
      <trkpt lat="47.14644" lon="-1.42201">
        <ele>15</ele>
        <time>2016-04-28T04:09:42Z</time>
      </trkpt>
      <trkpt lat="47.14699" lon="-1.42297">
        <ele>18</ele>
        <time>2016-04-28T04:11:42Z</time>
      </trkpt>
      <trkpt lat="47.1477" lon="-1.42374">
        <ele>24</ele>
        <time>2016-04-28T04:13:42Z</time>
      </trkpt>
      <trkpt lat="47.14849" lon="-1.42408">
        <ele>27</ele>
        <time>2016-04-28T04:15:42Z</time>
      </trkpt>
      <trkpt lat="47.14957" lon="-1.4244">
        <ele>28</ele>
        <time>2016-04-28T04:17:42Z</time>
      </trkpt>
      <trkpt lat="47.15016" lon="-1.42495">
        <ele>29</ele>
        <time>2016-04-28T04:19:42Z</time>
      </trkpt>
      <trkpt lat="47.15068" lon="-1.4261">
        <ele>29</ele>
        <time>2016-04-28T04:21:42Z</time>
      </trkpt>
      <trkpt lat="47.15128" lon="-1.4271">
        <ele>27</ele>
        <time>2016-04-28T04:23:42Z</time>
      </trkpt>
      <trkpt lat="47.15142" lon="-1.42791">
        <ele>28</ele>
        <time>2016-04-28T04:25:42Z</time>
      </trkpt>
      <trkpt lat="47.15075" lon="-1.42865">
        <ele>30</ele>
        <time>2016-04-28T04:27:42Z</time>
      </trkpt>
      <trkpt lat="47.15087" lon="-1.42998">
        <ele>29</ele>
        <time>2016-04-28T04:29:42Z</time>
      </trkpt>
      <trkpt lat="47.15134" lon="-1.43115">
        <ele>26</ele>
        <time>2016-04-28T04:31:42Z</time>
      </trkpt>
      <trkpt lat="47.15155" lon="-1.43248">
        <ele>25</ele>
        <time>2016-04-28T04:33:42Z</time>
      </trkpt>
      <trkpt lat="47.15151" lon="-1.43383">
        <ele>26</ele>
        <time>2016-04-28T04:35:42Z</time>
      </trkpt>
      <trkpt lat="47.15146" lon="-1.43493">
        <ele>26</ele>
        <time>2016-04-28T04:37:42Z</time>
      </trkpt>
      <trkpt lat="47.15167" lon="-1.43617">
        <ele>24</ele>
        <time>2016-04-28T04:39:42Z</time>
      </trkpt>
      <trkpt lat="47.15193" lon="-1.43729">
        <ele>21</ele>
        <time>2016-04-28T04:41:42Z</time>
      </trkpt>
      <trkpt lat="47.15183" lon="-1.43828">
        <ele>22</ele>
        <time>2016-04-28T04:43:42Z</time>
      </trkpt>
      <trkpt lat="47.15122" lon="-1.43914">
        <ele>29</ele>
        <time>2016-04-28T04:45:42Z</time>
      </trkpt>
      <trkpt lat="47.15143" lon="-1.43969">
        <ele>29</ele>
        <time>2016-04-28T04:47:42Z</time>
      </trkpt>
      <trkpt lat="47.15105" lon="-1.44198">
        <ele>25</ele>
        <time>2016-04-28T04:49:42Z</time>
      </trkpt>
      <trkpt lat="47.15157" lon="-1.44357">
        <ele>23</ele>
        <time>2016-04-28T04:51:42Z</time>
      </trkpt>
      <trkpt lat="47.15113" lon="-1.44401">
        <ele>22</ele>
        <time>2016-04-28T04:53:42Z</time>
      </trkpt>
      <trkpt lat="47.15038" lon="-1.44456">
        <ele>14</ele>
        <time>2016-04-28T04:55:42Z</time>
      </trkpt>
      <trkpt lat="47.14969" lon="-1.44332">
        <ele>16</ele>
        <time>2016-04-28T04:57:42Z</time>
      </trkpt>
      <trkpt lat="47.14955" lon="-1.44255">
        <ele>17</ele>
        <time>2016-04-28T04:59:42Z</time>
      </trkpt>
      <trkpt lat="47.14865" lon="-1.44341">
        <ele>11</ele>
        <time>2016-04-28T05:01:42Z</time>
      </trkpt>
      <trkpt lat="47.14797" lon="-1.4443">
        <ele>7</ele>
        <time>2016-04-28T05:03:42Z</time>
      </trkpt>
      <trkpt lat="47.14723" lon="-1.44353">
        <ele>6</ele>
        <time>2016-04-28T05:05:42Z</time>
      </trkpt>
      <trkpt lat="47.14674" lon="-1.44241">
        <ele>5</ele>
        <time>2016-04-28T05:07:42Z</time>
      </trkpt>
      <trkpt lat="47.14649" lon="-1.44108">
        <ele>4</ele>
        <time>2016-04-28T05:09:42Z</time>
      </trkpt>
      <trkpt lat="47.14694" lon="-1.44023">
        <ele>6</ele>
        <time>2016-04-28T05:11:42Z</time>
      </trkpt>
      <trkpt lat="47.14702" lon="-1.43918">
        <ele>9</ele>
        <time>2016-04-28T05:13:42Z</time>
      </trkpt>
      <trkpt lat="47.14703" lon="-1.43811">
        <ele>15</ele>
        <time>2016-04-28T05:15:42Z</time>
      </trkpt>
      <trkpt lat="47.14721" lon="-1.43573">
        <ele>11</ele>
        <time>2016-04-28T05:17:42Z</time>
      </trkpt>
      <trkpt lat="47.14676" lon="-1.43469">
        <ele>5</ele>
        <time>2016-04-28T05:19:42Z</time>
      </trkpt>
      <trkpt lat="47.14706" lon="-1.43342">
        <ele>5</ele>
        <time>2016-04-28T05:21:42Z</time>
      </trkpt>
      <trkpt lat="47.14699" lon="-1.4322">
        <ele>5</ele>
        <time>2016-04-28T05:23:42Z</time>
      </trkpt>
      <trkpt lat="47.14568" lon="-1.42864">
        <ele>7</ele>
        <time>2016-04-28T05:25:42Z</time>
      </trkpt>
      <trkpt lat="47.14495" lon="-1.42717">
        <ele>6</ele>
        <time>2016-04-28T05:27:42Z</time>
      </trkpt>
      <trkpt lat="47.14619" lon="-1.42516">
        <ele>27</ele>
        <time>2016-04-28T05:29:42Z</time>
      </trkpt>
      <trkpt lat="47.14551" lon="-1.42296">
        <ele>23</ele>
        <time>2016-04-28T05:31:42Z</time>
      </trkpt>
      <trkpt lat="47.14445" lon="-1.42387">
        <ele>15</ele>
        <time>2016-04-28T05:33:42Z</time>
      </trkpt>
      <trkpt lat="47.14401" lon="-1.42423">
        <ele>9</ele>
        <time>2016-04-28T05:35:42Z</time>
      </trkpt>
      <trkpt lat="47.14392" lon="-1.42416">
        <ele>9</ele>
        <time>2016-04-28T05:37:42Z</time>
      </trkpt>
      <trkpt lat="47.14387" lon="-1.42396">
        <ele>9</ele>
        <time>2016-04-28T05:39:42Z</time>
      </trkpt>
      <trkpt lat="47.14333" lon="-1.42289">
        <ele>9</ele>
        <time>2016-04-28T05:41:42Z</time>
      </trkpt>
      <trkpt lat="47.14276" lon="-1.42203">
        <ele>11</ele>
        <time>2016-04-28T05:43:42Z</time>
      </trkpt>
      <trkpt lat="47.14275" lon="-1.42193">
        <ele>11</ele>
        <time>2016-04-28T05:45:42Z</time>
      </trkpt>
      <trkpt lat="47.1426" lon="-1.42176">
        <ele>11</ele>
        <time>2016-04-28T05:47:42Z</time>
      </trkpt>
      <trkpt lat="47.14201" lon="-1.42098">
        <ele>9</ele>
        <time>2016-04-28T05:49:42Z</time>
      </trkpt>
      <trkpt lat="47.14138" lon="-1.41999">
        <ele>8</ele>
        <time>2016-04-28T05:51:42Z</time>
      </trkpt>
      <trkpt lat="47.14094" lon="-1.41955">
        <ele>9</ele>
        <time>2016-04-28T05:53:42Z</time>
      </trkpt>
      <trkpt lat="47.14063" lon="-1.41919">
        <ele>8</ele>
        <time>2016-04-28T05:55:42Z</time>
      </trkpt>
      <trkpt lat="47.14044" lon="-1.41843">
        <ele>13</ele>
        <time>2016-04-28T05:57:42Z</time>
      </trkpt>
      <trkpt lat="47.14007" lon="-1.41843">
        <ele>11</ele>
        <time>2016-04-28T05:59:42Z</time>
      </trkpt>
      <trkpt lat="47.13971" lon="-1.41826">
        <ele>10</ele>
        <time>2016-04-28T06:01:42Z</time>
      </trkpt>
      <trkpt lat="47.1394" lon="-1.41806">
        <ele>10</ele>
        <time>2016-04-28T06:03:42Z</time>
      </trkpt>
      <trkpt lat="47.13931" lon="-1.41792">
        <ele>11</ele>
        <time>2016-04-28T06:05:42Z</time>
      </trkpt>
      <trkpt lat="47.13919" lon="-1.41799">
        <ele>10</ele>
        <time>2016-04-28T06:07:42Z</time>
      </trkpt>
      <trkpt lat="47.13885" lon="-1.41787">
        <ele>10</ele>
        <time>2016-04-28T06:09:42Z</time>
      </trkpt>
      <trkpt lat="47.13861" lon="-1.4178">
        <ele>9</ele>
        <time>2016-04-28T06:11:42Z</time>
      </trkpt>
      <trkpt lat="47.13836" lon="-1.41757">
        <ele>10</ele>
        <time>2016-04-28T06:13:42Z</time>
      </trkpt>
      <trkpt lat="47.13807" lon="-1.41728">
        <ele>11</ele>
        <time>2016-04-28T06:15:42Z</time>
      </trkpt>
      <trkpt lat="47.1375" lon="-1.41692">
        <ele>10</ele>
        <time>2016-04-28T06:17:42Z</time>
      </trkpt>
      <trkpt lat="47.13686" lon="-1.41601">
        <ele>14</ele>
        <time>2016-04-28T06:19:42Z</time>
      </trkpt>
      <trkpt lat="47.1366" lon="-1.41552">
        <ele>17</ele>
        <time>2016-04-28T06:21:42Z</time>
      </trkpt>
      <trkpt lat="47.13634" lon="-1.41525">
        <ele>17</ele>
        <time>2016-04-28T06:23:42Z</time>
      </trkpt>
      <trkpt lat="47.13613" lon="-1.4151">
        <ele>17</ele>
        <time>2016-04-28T06:25:42Z</time>
      </trkpt>
      <trkpt lat="47.13589" lon="-1.41506">
        <ele>15</ele>
        <time>2016-04-28T06:27:42Z</time>
      </trkpt>
      <trkpt lat="47.13519" lon="-1.41472">
        <ele>12</ele>
        <time>2016-04-28T06:29:42Z</time>
      </trkpt>
      <trkpt lat="47.13433" lon="-1.41435">
        <ele>12</ele>
        <time>2016-04-28T06:31:42Z</time>
      </trkpt>
      <trkpt lat="47.13386" lon="-1.41409">
        <ele>12</ele>
        <time>2016-04-28T06:33:42Z</time>
      </trkpt>
      <trkpt lat="47.1336" lon="-1.41378">
        <ele>16</ele>
        <time>2016-04-28T06:35:42Z</time>
      </trkpt>
      <trkpt lat="47.13267" lon="-1.41302">
        <ele>15</ele>
        <time>2016-04-28T06:37:42Z</time>
      </trkpt>
      <trkpt lat="47.13223" lon="-1.41293">
        <ele>12</ele>
        <time>2016-04-28T06:39:42Z</time>
      </trkpt>
      <trkpt lat="47.13207" lon="-1.4128">
        <ele>13</ele>
        <time>2016-04-28T06:41:42Z</time>
      </trkpt>
      <trkpt lat="47.13176" lon="-1.4128">
        <ele>11</ele>
        <time>2016-04-28T06:43:42Z</time>
      </trkpt>
      <trkpt lat="47.13084" lon="-1.41269">
        <ele>10</ele>
        <time>2016-04-28T06:45:42Z</time>
      </trkpt>
      <trkpt lat="47.13037" lon="-1.41262">
        <ele>9</ele>
        <time>2016-04-28T06:47:42Z</time>
      </trkpt>
      <trkpt lat="47.12993" lon="-1.41246">
        <ele>10</ele>
        <time>2016-04-28T06:49:42Z</time>
      </trkpt>
      <trkpt lat="47.12974" lon="-1.41234">
        <ele>11</ele>
        <time>2016-04-28T06:51:42Z</time>
      </trkpt>
      <trkpt lat="47.12946" lon="-1.41138">
        <ele>23</ele>
        <time>2016-04-28T06:53:42Z</time>
      </trkpt>
      <trkpt lat="47.12923" lon="-1.41078">
        <ele>27</ele>
        <time>2016-04-28T06:55:42Z</time>
      </trkpt>
      <trkpt lat="47.12901" lon="-1.40991">
        <ele>30</ele>
        <time>2016-04-28T06:57:42Z</time>
      </trkpt>
      <trkpt lat="47.12897" lon="-1.40949">
        <ele>31</ele>
        <time>2016-04-28T06:59:42Z</time>
      </trkpt>
      <trkpt lat="47.12921" lon="-1.40868">
        <ele>29</ele>
        <time>2016-04-28T07:01:42Z</time>
      </trkpt>
      <trkpt lat="47.12882" lon="-1.40886">
        <ele>32</ele>
        <time>2016-04-28T07:03:42Z</time>
      </trkpt>
      <trkpt lat="47.12871" lon="-1.40886">
        <ele>33</ele>
        <time>2016-04-28T07:05:42Z</time>
      </trkpt>
      <trkpt lat="47.12871" lon="-1.40866">
        <ele>33</ele>
        <time>2016-04-28T07:07:42Z</time>
      </trkpt>
      <trkpt lat="47.12858" lon="-1.40857">
        <ele>34</ele>
        <time>2016-04-28T07:09:42Z</time>
      </trkpt>
      <trkpt lat="47.12849" lon="-1.4086">
        <ele>35</ele>
        <time>2016-04-28T07:11:42Z</time>
      </trkpt>
      <trkpt lat="47.12842" lon="-1.40892">
        <ele>36</ele>
        <time>2016-04-28T07:13:42Z</time>
      </trkpt>
      <trkpt lat="47.12833" lon="-1.40895">
        <ele>37</ele>
        <time>2016-04-28T07:15:42Z</time>
      </trkpt>
      <trkpt lat="47.12824" lon="-1.40894">
        <ele>38</ele>
        <time>2016-04-28T07:17:42Z</time>
      </trkpt>
      <trkpt lat="47.12808" lon="-1.40903">
        <ele>39</ele>
        <time>2016-04-28T07:19:42Z</time>
      </trkpt>
      <trkpt lat="47.12758" lon="-1.40919">
        <ele>44</ele>
        <time>2016-04-28T07:21:42Z</time>
      </trkpt>
      <trkpt lat="47.12658" lon="-1.40893">
        <ele>48</ele>
        <time>2016-04-28T07:23:42Z</time>
      </trkpt>
      <trkpt lat="47.12633" lon="-1.40913">
        <ele>50</ele>
        <time>2016-04-28T07:25:42Z</time>
      </trkpt>
      <trkpt lat="47.12618" lon="-1.4093">
        <ele>50</ele>
        <time>2016-04-28T07:27:42Z</time>
      </trkpt>
      <trkpt lat="47.12595" lon="-1.40979">
        <ele>51</ele>
        <time>2016-04-28T07:29:42Z</time>
      </trkpt>
      <trkpt lat="47.12543" lon="-1.41087">
        <ele>48</ele>
        <time>2016-04-28T07:31:42Z</time>
      </trkpt>
      <trkpt lat="47.12515" lon="-1.41127">
        <ele>47</ele>
        <time>2016-04-28T07:33:42Z</time>
      </trkpt>
      <trkpt lat="47.12496" lon="-1.41173">
        <ele>46</ele>
        <time>2016-04-28T07:35:42Z</time>
      </trkpt>
      <trkpt lat="47.12408" lon="-1.4126">
        <ele>43</ele>
        <time>2016-04-28T07:37:42Z</time>
      </trkpt>
      <trkpt lat="47.1243" lon="-1.41282">
        <ele>43</ele>
        <time>2016-04-28T07:39:42Z</time>
      </trkpt>
      <trkpt lat="47.12463" lon="-1.4129">
        <ele>40</ele>
        <time>2016-04-28T07:41:42Z</time>
      </trkpt>
      <trkpt lat="47.12563" lon="-1.4136">
        <ele>19</ele>
        <time>2016-04-28T07:43:42Z</time>
      </trkpt>
      <trkpt lat="47.12523" lon="-1.41426">
        <ele>14</ele>
        <time>2016-04-28T07:45:42Z</time>
      </trkpt>
      <trkpt lat="47.12602" lon="-1.41562">
        <ele>14</ele>
        <time>2016-04-28T07:47:42Z</time>
      </trkpt>
      <trkpt lat="47.126" lon="-1.41572">
        <ele>14</ele>
        <time>2016-04-28T07:49:42Z</time>
      </trkpt>
      <trkpt lat="47.12593" lon="-1.41594">
        <ele>16</ele>
        <time>2016-04-28T07:51:42Z</time>
      </trkpt>
      <trkpt lat="47.1259" lon="-1.41612">
        <ele>19</ele>
        <time>2016-04-28T07:53:42Z</time>
      </trkpt>
      <trkpt lat="47.12578" lon="-1.41625">
        <ele>20</ele>
        <time>2016-04-28T07:55:42Z</time>
      </trkpt>
      <trkpt lat="47.12576" lon="-1.41636">
        <ele>22</ele>
        <time>2016-04-28T07:57:42Z</time>
      </trkpt>
      <trkpt lat="47.12556" lon="-1.41681">
        <ele>27</ele>
        <time>2016-04-28T07:59:42Z</time>
      </trkpt>
      <trkpt lat="47.12549" lon="-1.41765">
        <ele>38</ele>
        <time>2016-04-28T08:01:42Z</time>
      </trkpt>
      <trkpt lat="47.12536" lon="-1.41823">
        <ele>45</ele>
        <time>2016-04-28T08:03:42Z</time>
      </trkpt>
      <trkpt lat="47.12515" lon="-1.41867">
        <ele>47</ele>
        <time>2016-04-28T08:05:42Z</time>
      </trkpt>
      <trkpt lat="47.12465" lon="-1.4191">
        <ele>48</ele>
        <time>2016-04-28T08:07:42Z</time>
      </trkpt>
      <trkpt lat="47.12423" lon="-1.41959">
        <ele>51</ele>
        <time>2016-04-28T08:09:42Z</time>
      </trkpt>
      <trkpt lat="47.12406" lon="-1.41945">
        <ele>48</ele>
        <time>2016-04-28T08:11:42Z</time>
      </trkpt>
      <trkpt lat="47.12353" lon="-1.41998">
        <ele>50</ele>
        <time>2016-04-28T08:13:42Z</time>
      </trkpt>
      <trkpt lat="47.1233" lon="-1.42015">
        <ele>51</ele>
        <time>2016-04-28T08:15:42Z</time>
      </trkpt>
      <trkpt lat="47.12323" lon="-1.42031">
        <ele>52</ele>
        <time>2016-04-28T08:17:42Z</time>
      </trkpt>
      <trkpt lat="47.12269" lon="-1.42012">
        <ele>49</ele>
        <time>2016-04-28T08:19:42Z</time>
      </trkpt>
      <trkpt lat="47.12226" lon="-1.42019">
        <ele>48</ele>
        <time>2016-04-28T08:21:42Z</time>
      </trkpt>
      <trkpt lat="47.12173" lon="-1.42009">
        <ele>46</ele>
        <time>2016-04-28T08:23:42Z</time>
      </trkpt>
      <trkpt lat="47.12136" lon="-1.42015">
        <ele>46</ele>
        <time>2016-04-28T08:25:42Z</time>
      </trkpt>
      <trkpt lat="47.12122" lon="-1.42012">
        <ele>46</ele>
        <time>2016-04-28T08:27:42Z</time>
      </trkpt>
      <trkpt lat="47.12113" lon="-1.42008">
        <ele>46</ele>
        <time>2016-04-28T08:29:42Z</time>
      </trkpt>
      <trkpt lat="47.1208" lon="-1.42013">
        <ele>47</ele>
        <time>2016-04-28T08:31:42Z</time>
      </trkpt>
      <trkpt lat="47.11989" lon="-1.42038">
        <ele>46</ele>
        <time>2016-04-28T08:33:42Z</time>
      </trkpt>
      <trkpt lat="47.119" lon="-1.42079">
        <ele>46</ele>
        <time>2016-04-28T08:35:42Z</time>
      </trkpt>
      <trkpt lat="47.11815" lon="-1.42133">
        <ele>45</ele>
        <time>2016-04-28T08:37:42Z</time>
      </trkpt>
      <trkpt lat="47.11732" lon="-1.42195">
        <ele>41</ele>
        <time>2016-04-28T08:39:42Z</time>
      </trkpt>
      <trkpt lat="47.11704" lon="-1.42213">
        <ele>39</ele>
        <time>2016-04-28T08:41:42Z</time>
      </trkpt>
      <trkpt lat="47.11699" lon="-1.42229">
        <ele>39</ele>
        <time>2016-04-28T08:43:42Z</time>
      </trkpt>
      <trkpt lat="47.11704" lon="-1.42245">
        <ele>40</ele>
        <time>2016-04-28T08:45:42Z</time>
      </trkpt>
      <trkpt lat="47.11731" lon="-1.42269">
        <ele>42</ele>
        <time>2016-04-28T08:47:42Z</time>
      </trkpt>
      <trkpt lat="47.11747" lon="-1.42312">
        <ele>43</ele>
        <time>2016-04-28T08:49:42Z</time>
      </trkpt>
      <trkpt lat="47.11762" lon="-1.42403">
        <ele>45</ele>
        <time>2016-04-28T08:51:42Z</time>
      </trkpt>
      <trkpt lat="47.11684" lon="-1.42455">
        <ele>44</ele>
        <time>2016-04-28T08:53:42Z</time>
      </trkpt>
      <trkpt lat="47.11635" lon="-1.42499">
        <ele>39</ele>
        <time>2016-04-28T08:55:42Z</time>
      </trkpt>
      <trkpt lat="47.11672" lon="-1.426">
        <ele>41</ele>
        <time>2016-04-28T08:57:42Z</time>
      </trkpt>
      <trkpt lat="47.11679" lon="-1.4265">
        <ele>40</ele>
        <time>2016-04-28T08:59:42Z</time>
      </trkpt>
      <trkpt lat="47.11657" lon="-1.42681">
        <ele>38</ele>
        <time>2016-04-28T09:01:42Z</time>
      </trkpt>
      <trkpt lat="47.11656" lon="-1.42716">
        <ele>37</ele>
        <time>2016-04-28T09:03:42Z</time>
      </trkpt>
      <trkpt lat="47.11643" lon="-1.42728">
        <ele>36</ele>
        <time>2016-04-28T09:05:42Z</time>
      </trkpt>
      <trkpt lat="47.11622" lon="-1.42722">
        <ele>36</ele>
        <time>2016-04-28T09:07:42Z</time>
      </trkpt>
      <trkpt lat="47.11594" lon="-1.42647">
        <ele>36</ele>
        <time>2016-04-28T09:09:42Z</time>
      </trkpt>
      <trkpt lat="47.11521" lon="-1.42546">
        <ele>35</ele>
        <time>2016-04-28T09:11:42Z</time>
      </trkpt>
      <trkpt lat="47.11485" lon="-1.42484">
        <ele>33</ele>
        <time>2016-04-28T09:13:42Z</time>
      </trkpt>
      <trkpt lat="47.11455" lon="-1.42463">
        <ele>33</ele>
        <time>2016-04-28T09:15:42Z</time>
      </trkpt>
      <trkpt lat="47.11373" lon="-1.42533">
        <ele>34</ele>
        <time>2016-04-28T09:17:42Z</time>
      </trkpt>
      <trkpt lat="47.11344" lon="-1.42555">
        <ele>34</ele>
        <time>2016-04-28T09:19:42Z</time>
      </trkpt>
      <trkpt lat="47.1135" lon="-1.42569">
        <ele>35</ele>
        <time>2016-04-28T09:21:42Z</time>
      </trkpt>
      <trkpt lat="47.11289" lon="-1.4259">
        <ele>35</ele>
        <time>2016-04-28T09:23:42Z</time>
      </trkpt>
      <trkpt lat="47.11201" lon="-1.42619">
        <ele>39</ele>
        <time>2016-04-28T09:25:42Z</time>
      </trkpt>
      <trkpt lat="47.11114" lon="-1.42653">
        <ele>44</ele>
        <time>2016-04-28T09:27:42Z</time>
      </trkpt>
      <trkpt lat="47.11096" lon="-1.42656">
        <ele>45</ele>
        <time>2016-04-28T09:29:42Z</time>
      </trkpt>
      <trkpt lat="47.11076" lon="-1.42665">
        <ele>46</ele>
        <time>2016-04-28T09:31:42Z</time>
      </trkpt>
      <trkpt lat="47.1094" lon="-1.4273">
        <ele>47</ele>
        <time>2016-04-28T09:33:42Z</time>
      </trkpt>
      <trkpt lat="47.10907" lon="-1.42744">
        <ele>47</ele>
        <time>2016-04-28T09:35:42Z</time>
      </trkpt>
      <trkpt lat="47.10896" lon="-1.4274">
        <ele>46</ele>
        <time>2016-04-28T09:37:42Z</time>
      </trkpt>
      <trkpt lat="47.10848" lon="-1.42752">
        <ele>45</ele>
        <time>2016-04-28T09:39:42Z</time>
      </trkpt>
      <trkpt lat="47.10758" lon="-1.4278">
        <ele>42</ele>
        <time>2016-04-28T09:41:42Z</time>
      </trkpt>
      <trkpt lat="47.10757" lon="-1.42871">
        <ele>40</ele>
        <time>2016-04-28T09:43:42Z</time>
      </trkpt>
      <trkpt lat="47.10755" lon="-1.42934">
        <ele>39</ele>
        <time>2016-04-28T09:45:42Z</time>
      </trkpt>
      <trkpt lat="47.10747" lon="-1.42989">
        <ele>38</ele>
        <time>2016-04-28T09:47:42Z</time>
      </trkpt>
      <trkpt lat="47.10694" lon="-1.42961">
        <ele>37</ele>
        <time>2016-04-28T09:49:42Z</time>
      </trkpt>
      <trkpt lat="47.10645" lon="-1.42916">
        <ele>37</ele>
        <time>2016-04-28T09:51:42Z</time>
      </trkpt>
      <trkpt lat="47.10585" lon="-1.42858">
        <ele>38</ele>
        <time>2016-04-28T09:53:42Z</time>
      </trkpt>
      <trkpt lat="47.1054" lon="-1.42833">
        <ele>37</ele>
        <time>2016-04-28T09:55:42Z</time>
      </trkpt>
      <trkpt lat="47.10529" lon="-1.42829">
        <ele>37</ele>
        <time>2016-04-28T09:57:42Z</time>
      </trkpt>
      <trkpt lat="47.1053" lon="-1.42865">
        <ele>37</ele>
        <time>2016-04-28T09:59:42Z</time>
      </trkpt>
      <trkpt lat="47.10528" lon="-1.42883">
        <ele>36</ele>
        <time>2016-04-28T10:01:42Z</time>
      </trkpt>
      <trkpt lat="47.1052" lon="-1.42895">
        <ele>36</ele>
        <time>2016-04-28T10:03:42Z</time>
      </trkpt>
      <trkpt lat="47.10452" lon="-1.42912">
        <ele>37</ele>
        <time>2016-04-28T10:05:42Z</time>
      </trkpt>
      <trkpt lat="47.10438" lon="-1.42949">
        <ele>38</ele>
        <time>2016-04-28T10:07:42Z</time>
      </trkpt>
      <trkpt lat="47.10378" lon="-1.42986">
        <ele>38</ele>
        <time>2016-04-28T10:09:42Z</time>
      </trkpt>
      <trkpt lat="47.10358" lon="-1.43001">
        <ele>37</ele>
        <time>2016-04-28T10:11:42Z</time>
      </trkpt>
      <trkpt lat="47.10284" lon="-1.43055">
        <ele>31</ele>
        <time>2016-04-28T10:13:42Z</time>
      </trkpt>
      <trkpt lat="47.10279" lon="-1.43084">
        <ele>31</ele>
        <time>2016-04-28T10:15:42Z</time>
      </trkpt>
      <trkpt lat="47.10277" lon="-1.4312">
        <ele>30</ele>
        <time>2016-04-28T10:17:42Z</time>
      </trkpt>
      <trkpt lat="47.10286" lon="-1.4316">
        <ele>31</ele>
        <time>2016-04-28T10:19:42Z</time>
      </trkpt>
      <trkpt lat="47.10288" lon="-1.43177">
        <ele>31</ele>
        <time>2016-04-28T10:21:42Z</time>
      </trkpt>
      <trkpt lat="47.10211" lon="-1.43218">
        <ele>27</ele>
        <time>2016-04-28T10:23:42Z</time>
      </trkpt>
      <trkpt lat="47.10144" lon="-1.43311">
        <ele>30</ele>
        <time>2016-04-28T10:25:42Z</time>
      </trkpt>
      <trkpt lat="47.10114" lon="-1.43359">
        <ele>30</ele>
        <time>2016-04-28T10:27:42Z</time>
      </trkpt>
      <trkpt lat="47.10077" lon="-1.43372">
        <ele>30</ele>
        <time>2016-04-28T10:29:42Z</time>
      </trkpt>
      <trkpt lat="47.10026" lon="-1.43396">
        <ele>31</ele>
        <time>2016-04-28T10:31:42Z</time>
      </trkpt>
      <trkpt lat="47.10009" lon="-1.4339">
        <ele>31</ele>
        <time>2016-04-28T10:33:42Z</time>
      </trkpt>
      <trkpt lat="47.10069" lon="-1.43236">
        <ele>31</ele>
        <time>2016-04-28T10:35:42Z</time>
      </trkpt>
      <trkpt lat="47.10081" lon="-1.43204">
        <ele>30</ele>
        <time>2016-04-28T10:37:42Z</time>
      </trkpt>
      <trkpt lat="47.10086" lon="-1.43147">
        <ele>30</ele>
        <time>2016-04-28T10:39:42Z</time>
      </trkpt>
      <trkpt lat="47.10086" lon="-1.431">
        <ele>31</ele>
        <time>2016-04-28T10:41:42Z</time>
      </trkpt>
      <trkpt lat="47.10052" lon="-1.42979">
        <ele>31</ele>
        <time>2016-04-28T10:43:42Z</time>
      </trkpt>
      <trkpt lat="47.10029" lon="-1.42879">
        <ele>32</ele>
        <time>2016-04-28T10:45:42Z</time>
      </trkpt>
      <trkpt lat="47.10033" lon="-1.42812">
        <ele>32</ele>
        <time>2016-04-28T10:47:42Z</time>
      </trkpt>
      <trkpt lat="47.10037" lon="-1.42759">
        <ele>32</ele>
        <time>2016-04-28T10:49:42Z</time>
      </trkpt>
      <trkpt lat="47.10031" lon="-1.42705">
        <ele>32</ele>
        <time>2016-04-28T10:51:42Z</time>
      </trkpt>
      <trkpt lat="47.10005" lon="-1.42644">
        <ele>31</ele>
        <time>2016-04-28T10:53:42Z</time>
      </trkpt>
      <trkpt lat="47.09989" lon="-1.42616">
        <ele>32</ele>
        <time>2016-04-28T10:55:42Z</time>
      </trkpt>
      <trkpt lat="47.09986" lon="-1.42596">
        <ele>33</ele>
        <time>2016-04-28T10:57:42Z</time>
      </trkpt>
      <trkpt lat="47.09928" lon="-1.4257">
        <ele>35</ele>
        <time>2016-04-28T10:59:42Z</time>
      </trkpt>
      <trkpt lat="47.09912" lon="-1.42382">
        <ele>36</ele>
        <time>2016-04-28T11:01:42Z</time>
      </trkpt>
      <trkpt lat="47.09916" lon="-1.42345">
        <ele>36</ele>
        <time>2016-04-28T11:03:42Z</time>
      </trkpt>
      <trkpt lat="47.09913" lon="-1.42247">
        <ele>38</ele>
        <time>2016-04-28T11:05:42Z</time>
      </trkpt>
      <trkpt lat="47.09907" lon="-1.42182">
        <ele>39</ele>
        <time>2016-04-28T11:07:42Z</time>
      </trkpt>
      <trkpt lat="47.09888" lon="-1.42121">
        <ele>38</ele>
        <time>2016-04-28T11:09:42Z</time>
      </trkpt>
      <trkpt lat="47.09876" lon="-1.42081">
        <ele>37</ele>
        <time>2016-04-28T11:11:42Z</time>
      </trkpt>
      <trkpt lat="47.0987" lon="-1.42027">
        <ele>35</ele>
        <time>2016-04-28T11:13:42Z</time>
      </trkpt>
      <trkpt lat="47.09873" lon="-1.41985">
        <ele>34</ele>
        <time>2016-04-28T11:15:42Z</time>
      </trkpt>
      <trkpt lat="47.0987" lon="-1.41949">
        <ele>33</ele>
        <time>2016-04-28T11:17:42Z</time>
      </trkpt>
      <trkpt lat="47.09851" lon="-1.41859">
        <ele>31</ele>
        <time>2016-04-28T11:19:42Z</time>
      </trkpt>
      <trkpt lat="47.09848" lon="-1.41787">
        <ele>28</ele>
        <time>2016-04-28T11:21:42Z</time>
      </trkpt>
      <trkpt lat="47.0982" lon="-1.41757">
        <ele>28</ele>
        <time>2016-04-28T11:23:42Z</time>
      </trkpt>
      <trkpt lat="47.09786" lon="-1.41714">
        <ele>31</ele>
        <time>2016-04-28T11:25:42Z</time>
      </trkpt>
      <trkpt lat="47.0977" lon="-1.41708">
        <ele>32</ele>
        <time>2016-04-28T11:27:42Z</time>
      </trkpt>
      <trkpt lat="47.09739" lon="-1.41682">
        <ele>33</ele>
        <time>2016-04-28T11:29:42Z</time>
      </trkpt>
      <trkpt lat="47.09703" lon="-1.4165">
        <ele>34</ele>
        <time>2016-04-28T11:31:42Z</time>
      </trkpt>
      <trkpt lat="47.09668" lon="-1.41595">
        <ele>36</ele>
        <time>2016-04-28T11:33:42Z</time>
      </trkpt>
      <trkpt lat="47.09638" lon="-1.41527">
        <ele>36</ele>
        <time>2016-04-28T11:35:42Z</time>
      </trkpt>
      <trkpt lat="47.0962" lon="-1.41514">
        <ele>37</ele>
        <time>2016-04-28T11:37:42Z</time>
      </trkpt>
      <trkpt lat="47.09622" lon="-1.41499">
        <ele>37</ele>
        <time>2016-04-28T11:39:42Z</time>
      </trkpt>
      <trkpt lat="47.09605" lon="-1.41467">
        <ele>37</ele>
        <time>2016-04-28T11:41:42Z</time>
      </trkpt>
      <trkpt lat="47.09561" lon="-1.4137">
        <ele>37</ele>
        <time>2016-04-28T11:43:42Z</time>
      </trkpt>
      <trkpt lat="47.09519" lon="-1.41298">
        <ele>38</ele>
        <time>2016-04-28T11:45:42Z</time>
      </trkpt>
      <trkpt lat="47.09497" lon="-1.4128">
        <ele>38</ele>
        <time>2016-04-28T11:47:42Z</time>
      </trkpt>
      <trkpt lat="47.0943" lon="-1.41242">
        <ele>39</ele>
        <time>2016-04-28T11:49:42Z</time>
      </trkpt>
      <trkpt lat="47.09384" lon="-1.41186">
        <ele>39</ele>
        <time>2016-04-28T11:51:42Z</time>
      </trkpt>
      <trkpt lat="47.09337" lon="-1.4122">
        <ele>40</ele>
        <time>2016-04-28T11:53:42Z</time>
      </trkpt>
      <trkpt lat="47.09312" lon="-1.41241">
        <ele>40</ele>
        <time>2016-04-28T11:55:42Z</time>
      </trkpt>
      <trkpt lat="47.09266" lon="-1.41308">
        <ele>40</ele>
        <time>2016-04-28T11:57:42Z</time>
      </trkpt>
      <trkpt lat="47.09176" lon="-1.41417">
        <ele>40</ele>
        <time>2016-04-28T11:59:42Z</time>
      </trkpt>
      <trkpt lat="47.09107" lon="-1.41353">
        <ele>40</ele>
        <time>2016-04-28T12:01:42Z</time>
      </trkpt>
      <trkpt lat="47.09054" lon="-1.41304">
        <ele>40</ele>
        <time>2016-04-28T12:03:42Z</time>
      </trkpt>
      <trkpt lat="47.09032" lon="-1.41273">
        <ele>40</ele>
        <time>2016-04-28T12:05:42Z</time>
      </trkpt>
      <trkpt lat="47.08969" lon="-1.41171">
        <ele>40</ele>
        <time>2016-04-28T12:07:42Z</time>
      </trkpt>
      <trkpt lat="47.08834" lon="-1.40982">
        <ele>42</ele>
        <time>2016-04-28T12:09:42Z</time>
      </trkpt>
      <trkpt lat="47.08781" lon="-1.40917">
        <ele>42</ele>
        <time>2016-04-28T12:11:42Z</time>
      </trkpt>
      <trkpt lat="47.08792" lon="-1.40741">
        <ele>39</ele>
        <time>2016-04-28T12:13:42Z</time>
      </trkpt>
      <trkpt lat="47.0881" lon="-1.40602">
        <ele>38</ele>
        <time>2016-04-28T12:15:42Z</time>
      </trkpt>
      <trkpt lat="47.08838" lon="-1.40488">
        <ele>38</ele>
        <time>2016-04-28T12:17:42Z</time>
      </trkpt>
      <trkpt lat="47.08839" lon="-1.40443">
        <ele>37</ele>
        <time>2016-04-28T12:19:42Z</time>
      </trkpt>
      <trkpt lat="47.08855" lon="-1.40358">
        <ele>36</ele>
        <time>2016-04-28T12:21:42Z</time>
      </trkpt>
      <trkpt lat="47.0875" lon="-1.40376">
        <ele>39</ele>
        <time>2016-04-28T12:23:42Z</time>
      </trkpt>
      <trkpt lat="47.08661" lon="-1.40361">
        <ele>36</ele>
        <time>2016-04-28T12:25:42Z</time>
      </trkpt>
      <trkpt lat="47.08606" lon="-1.40332">
        <ele>32</ele>
        <time>2016-04-28T12:27:42Z</time>
      </trkpt>
      <trkpt lat="47.086" lon="-1.40302">
        <ele>32</ele>
        <time>2016-04-28T12:29:42Z</time>
      </trkpt>
      <trkpt lat="47.08605" lon="-1.4026">
        <ele>33</ele>
        <time>2016-04-28T12:31:42Z</time>
      </trkpt>
      <trkpt lat="47.08579" lon="-1.40237">
        <ele>33</ele>
        <time>2016-04-28T12:33:42Z</time>
      </trkpt>
      <trkpt lat="47.08564" lon="-1.40246">
        <ele>34</ele>
        <time>2016-04-28T12:35:42Z</time>
      </trkpt>
      <trkpt lat="47.08538" lon="-1.40224">
        <ele>35</ele>
        <time>2016-04-28T12:37:42Z</time>
      </trkpt>
      <trkpt lat="47.08483" lon="-1.40183">
        <ele>37</ele>
        <time>2016-04-28T12:39:42Z</time>
      </trkpt>
      <trkpt lat="47.08435" lon="-1.40144">
        <ele>34</ele>
        <time>2016-04-28T12:41:42Z</time>
      </trkpt>
      <trkpt lat="47.08381" lon="-1.40131">
        <ele>32</ele>
        <time>2016-04-28T12:43:42Z</time>
      </trkpt>
      <trkpt lat="47.08359" lon="-1.40135">
        <ele>32</ele>
        <time>2016-04-28T12:45:42Z</time>
      </trkpt>
      <trkpt lat="47.08348" lon="-1.40108">
        <ele>29</ele>
        <time>2016-04-28T12:47:42Z</time>
      </trkpt>
      <trkpt lat="47.08283" lon="-1.4004">
        <ele>26</ele>
        <time>2016-04-28T12:49:42Z</time>
      </trkpt>
      <trkpt lat="47.08231" lon="-1.39988">
        <ele>26</ele>
        <time>2016-04-28T12:51:42Z</time>
      </trkpt>
      <trkpt lat="47.08198" lon="-1.39938">
        <ele>24</ele>
        <time>2016-04-28T12:53:42Z</time>
      </trkpt>
      <trkpt lat="47.08167" lon="-1.39906">
        <ele>23</ele>
        <time>2016-04-28T12:55:42Z</time>
      </trkpt>
      <trkpt lat="47.08112" lon="-1.39861">
        <ele>23</ele>
        <time>2016-04-28T12:57:42Z</time>
      </trkpt>
      <trkpt lat="47.07996" lon="-1.39779">
        <ele>22</ele>
        <time>2016-04-28T12:59:42Z</time>
      </trkpt>
      <trkpt lat="47.07973" lon="-1.39762">
        <ele>21</ele>
        <time>2016-04-28T13:01:42Z</time>
      </trkpt>
      <trkpt lat="47.0795" lon="-1.39757">
        <ele>23</ele>
        <time>2016-04-28T13:03:42Z</time>
      </trkpt>
      <trkpt lat="47.0794" lon="-1.3968">
        <ele>23</ele>
        <time>2016-04-28T13:05:42Z</time>
      </trkpt>
      <trkpt lat="47.0793" lon="-1.39662">
        <ele>23</ele>
        <time>2016-04-28T13:07:42Z</time>
      </trkpt>
      <trkpt lat="47.07919" lon="-1.39646">
        <ele>25</ele>
        <time>2016-04-28T13:09:42Z</time>
      </trkpt>
      <trkpt lat="47.07906" lon="-1.39624">
        <ele>27</ele>
        <time>2016-04-28T13:11:42Z</time>
      </trkpt>
      <trkpt lat="47.07879" lon="-1.39579">
        <ele>28</ele>
        <time>2016-04-28T13:13:42Z</time>
      </trkpt>
      <trkpt lat="47.07865" lon="-1.39484">
        <ele>29</ele>
        <time>2016-04-28T13:15:42Z</time>
      </trkpt>
      <trkpt lat="47.07852" lon="-1.3944">
        <ele>28</ele>
        <time>2016-04-28T13:17:42Z</time>
      </trkpt>
      <trkpt lat="47.07818" lon="-1.39411">
        <ele>27</ele>
        <time>2016-04-28T13:19:42Z</time>
      </trkpt>
      <trkpt lat="47.07759" lon="-1.39345">
        <ele>29</ele>
        <time>2016-04-28T13:21:42Z</time>
      </trkpt>
      <trkpt lat="47.07736" lon="-1.39289">
        <ele>31</ele>
        <time>2016-04-28T13:23:42Z</time>
      </trkpt>
      <trkpt lat="47.07744" lon="-1.3924">
        <ele>35</ele>
        <time>2016-04-28T13:25:42Z</time>
      </trkpt>
      <trkpt lat="47.07768" lon="-1.39181">
        <ele>38</ele>
        <time>2016-04-28T13:27:42Z</time>
      </trkpt>
      <trkpt lat="47.07792" lon="-1.39151">
        <ele>40</ele>
        <time>2016-04-28T13:29:42Z</time>
      </trkpt>
      <trkpt lat="47.0782" lon="-1.39126">
        <ele>42</ele>
        <time>2016-04-28T13:31:42Z</time>
      </trkpt>
      <trkpt lat="47.07828" lon="-1.39119">
        <ele>42</ele>
        <time>2016-04-28T13:33:42Z</time>
      </trkpt>
      <trkpt lat="47.07847" lon="-1.3913">
        <ele>43</ele>
        <time>2016-04-28T13:35:42Z</time>
      </trkpt>
      <trkpt lat="47.07887" lon="-1.39124">
        <ele>43</ele>
        <time>2016-04-28T13:37:42Z</time>
      </trkpt>
      <trkpt lat="47.07915" lon="-1.39126">
        <ele>44</ele>
        <time>2016-04-28T13:39:42Z</time>
      </trkpt>
      <trkpt lat="47.07964" lon="-1.39137">
        <ele>44</ele>
        <time>2016-04-28T13:41:42Z</time>
      </trkpt>
      <trkpt lat="47.0801" lon="-1.39154">
        <ele>43</ele>
        <time>2016-04-28T13:43:42Z</time>
      </trkpt>
      <trkpt lat="47.08033" lon="-1.39173">
        <ele>42</ele>
        <time>2016-04-28T13:45:42Z</time>
      </trkpt>
      <trkpt lat="47.08106" lon="-1.39024">
        <ele>46</ele>
        <time>2016-04-28T13:47:42Z</time>
      </trkpt>
      <trkpt lat="47.08111" lon="-1.39018">
        <ele>46</ele>
        <time>2016-04-28T13:49:42Z</time>
      </trkpt>
      <trkpt lat="47.08123" lon="-1.39015">
        <ele>46</ele>
        <time>2016-04-28T13:51:42Z</time>
      </trkpt>
      <trkpt lat="47.08148" lon="-1.38978">
        <ele>45</ele>
        <time>2016-04-28T13:53:42Z</time>
      </trkpt>
      <trkpt lat="47.08165" lon="-1.38957">
        <ele>45</ele>
        <time>2016-04-28T13:55:42Z</time>
      </trkpt>
      <trkpt lat="47.08223" lon="-1.38864">
        <ele>43</ele>
        <time>2016-04-28T13:57:42Z</time>
      </trkpt>
      <trkpt lat="47.08231" lon="-1.38796">
        <ele>41</ele>
        <time>2016-04-28T13:59:42Z</time>
      </trkpt>
      <trkpt lat="47.08234" lon="-1.38765">
        <ele>40</ele>
        <time>2016-04-28T14:01:42Z</time>
      </trkpt>
      <trkpt lat="47.08209" lon="-1.38745">
        <ele>40</ele>
        <time>2016-04-28T14:03:42Z</time>
      </trkpt>
      <trkpt lat="47.08145" lon="-1.38709">
        <ele>39</ele>
        <time>2016-04-28T14:05:42Z</time>
      </trkpt>
      <trkpt lat="47.08059" lon="-1.38612">
        <ele>36</ele>
        <time>2016-04-28T14:07:42Z</time>
      </trkpt>
      <trkpt lat="47.08058" lon="-1.38597">
        <ele>36</ele>
        <time>2016-04-28T14:09:42Z</time>
      </trkpt>
      <trkpt lat="47.08082" lon="-1.38553">
        <ele>36</ele>
        <time>2016-04-28T14:11:42Z</time>
      </trkpt>
      <trkpt lat="47.08026" lon="-1.3849">
        <ele>34</ele>
        <time>2016-04-28T14:13:42Z</time>
      </trkpt>
      <trkpt lat="47.07973" lon="-1.38399">
        <ele>36</ele>
        <time>2016-04-28T14:15:42Z</time>
      </trkpt>
      <trkpt lat="47.07949" lon="-1.38375">
        <ele>36</ele>
        <time>2016-04-28T14:17:42Z</time>
      </trkpt>
      <trkpt lat="47.07971" lon="-1.3835">
        <ele>36</ele>
        <time>2016-04-28T14:19:42Z</time>
      </trkpt>
      <trkpt lat="47.07974" lon="-1.38326">
        <ele>37</ele>
        <time>2016-04-28T14:21:42Z</time>
      </trkpt>
      <trkpt lat="47.07967" lon="-1.38292">
        <ele>38</ele>
        <time>2016-04-28T14:23:42Z</time>
      </trkpt>
      <trkpt lat="47.0796" lon="-1.38282">
        <ele>38</ele>
        <time>2016-04-28T14:25:42Z</time>
      </trkpt>
      <trkpt lat="47.0799" lon="-1.38212">
        <ele>40</ele>
        <time>2016-04-28T14:27:42Z</time>
      </trkpt>
      <trkpt lat="47.08005" lon="-1.38174">
        <ele>41</ele>
        <time>2016-04-28T14:29:42Z</time>
      </trkpt>
      <trkpt lat="47.07988" lon="-1.38056">
        <ele>45</ele>
        <time>2016-04-28T14:31:42Z</time>
      </trkpt>
      <trkpt lat="47.07996" lon="-1.3801">
        <ele>47</ele>
        <time>2016-04-28T14:33:42Z</time>
      </trkpt>
      <trkpt lat="47.08017" lon="-1.37964">
        <ele>47</ele>
        <time>2016-04-28T14:35:42Z</time>
      </trkpt>
      <trkpt lat="47.07992" lon="-1.37897">
        <ele>48</ele>
        <time>2016-04-28T14:37:42Z</time>
      </trkpt>
      <trkpt lat="47.07983" lon="-1.37871">
        <ele>47</ele>
        <time>2016-04-28T14:39:42Z</time>
      </trkpt>
      <trkpt lat="47.07951" lon="-1.37874">
        <ele>46</ele>
        <time>2016-04-28T14:41:42Z</time>
      </trkpt>
      <trkpt lat="47.0791" lon="-1.37879">
        <ele>45</ele>
        <time>2016-04-28T14:43:42Z</time>
      </trkpt>
      <trkpt lat="47.0788" lon="-1.37913">
        <ele>44</ele>
        <time>2016-04-28T14:45:42Z</time>
      </trkpt>
      <trkpt lat="47.07819" lon="-1.37949">
        <ele>41</ele>
        <time>2016-04-28T14:47:42Z</time>
      </trkpt>
      <trkpt lat="47.07822" lon="-1.38149">
        <ele>40</ele>
        <time>2016-04-28T14:49:42Z</time>
      </trkpt>
      <trkpt lat="47.07794" lon="-1.38164">
        <ele>40</ele>
        <time>2016-04-28T14:51:42Z</time>
      </trkpt>
      <trkpt lat="47.07775" lon="-1.38166">
        <ele>40</ele>
        <time>2016-04-28T14:53:42Z</time>
      </trkpt>
      <trkpt lat="47.07757" lon="-1.38144">
        <ele>40</ele>
        <time>2016-04-28T14:55:42Z</time>
      </trkpt>
      <trkpt lat="47.07749" lon="-1.38132">
        <ele>40</ele>
        <time>2016-04-28T14:57:42Z</time>
      </trkpt>
      <trkpt lat="47.07725" lon="-1.38084">
        <ele>39</ele>
        <time>2016-04-28T14:59:42Z</time>
      </trkpt>
      <trkpt lat="47.07685" lon="-1.38024">
        <ele>38</ele>
        <time>2016-04-28T15:01:42Z</time>
      </trkpt>
      <trkpt lat="47.0766" lon="-1.37999">
        <ele>37</ele>
        <time>2016-04-28T15:03:42Z</time>
      </trkpt>
      <trkpt lat="47.07639" lon="-1.37961">
        <ele>36</ele>
        <time>2016-04-28T15:05:42Z</time>
      </trkpt>
      <trkpt lat="47.07589" lon="-1.37863">
        <ele>36</ele>
        <time>2016-04-28T15:07:42Z</time>
      </trkpt>
      <trkpt lat="47.07545" lon="-1.37803">
        <ele>36</ele>
        <time>2016-04-28T15:09:42Z</time>
      </trkpt>
      <trkpt lat="47.07462" lon="-1.37701">
        <ele>36</ele>
        <time>2016-04-28T15:11:42Z</time>
      </trkpt>
      <trkpt lat="47.0743" lon="-1.37659">
        <ele>36</ele>
        <time>2016-04-28T15:13:42Z</time>
      </trkpt>
      <trkpt lat="47.07402" lon="-1.3756">
        <ele>36</ele>
        <time>2016-04-28T15:15:42Z</time>
      </trkpt>
      <trkpt lat="47.07396" lon="-1.37532">
        <ele>36</ele>
        <time>2016-04-28T15:17:42Z</time>
      </trkpt>
      <trkpt lat="47.07387" lon="-1.37415">
        <ele>35</ele>
        <time>2016-04-28T15:19:42Z</time>
      </trkpt>
      <trkpt lat="47.07435" lon="-1.37231">
        <ele>34</ele>
        <time>2016-04-28T15:21:42Z</time>
      </trkpt>
      <trkpt lat="47.07477" lon="-1.37045">
        <ele>34</ele>
        <time>2016-04-28T15:23:42Z</time>
      </trkpt>
      <trkpt lat="47.07496" lon="-1.3689">
        <ele>37</ele>
        <time>2016-04-28T15:25:42Z</time>
      </trkpt>
      <trkpt lat="47.07504" lon="-1.36619">
        <ele>39</ele>
        <time>2016-04-28T15:27:42Z</time>
      </trkpt>
      <trkpt lat="47.07515" lon="-1.3642">
        <ele>40</ele>
        <time>2016-04-28T15:29:42Z</time>
      </trkpt>
      <trkpt lat="47.07536" lon="-1.36342">
        <ele>43</ele>
        <time>2016-04-28T15:31:42Z</time>
      </trkpt>
      <trkpt lat="47.07669" lon="-1.36038">
        <ele>46</ele>
        <time>2016-04-28T15:33:42Z</time>
      </trkpt>
      <trkpt lat="47.07686" lon="-1.36051">
        <ele>46</ele>
        <time>2016-04-28T15:35:42Z</time>
      </trkpt>
      <trkpt lat="47.07712" lon="-1.36236">
        <ele>45</ele>
        <time>2016-04-28T15:37:42Z</time>
      </trkpt>
      <trkpt lat="47.07922" lon="-1.36053">
        <ele>44</ele>
        <time>2016-04-28T15:39:42Z</time>
      </trkpt>
      <trkpt lat="47.07996" lon="-1.36243">
        <ele>48</ele>
        <time>2016-04-28T15:41:42Z</time>
      </trkpt>
      <trkpt lat="47.08022" lon="-1.36311">
        <ele>48</ele>
        <time>2016-04-28T15:43:42Z</time>
      </trkpt>
      <trkpt lat="47.08023" lon="-1.36343">
        <ele>48</ele>
        <time>2016-04-28T15:45:42Z</time>
      </trkpt>
      <trkpt lat="47.08089" lon="-1.36555">
        <ele>45</ele>
        <time>2016-04-28T15:47:42Z</time>
      </trkpt>
      <trkpt lat="47.08109" lon="-1.36545">
        <ele>45</ele>
        <time>2016-04-28T15:49:42Z</time>
      </trkpt>
      <trkpt lat="47.08154" lon="-1.36567">
        <ele>45</ele>
        <time>2016-04-28T15:51:42Z</time>
      </trkpt>
      <trkpt lat="47.08163" lon="-1.36514">
        <ele>46</ele>
        <time>2016-04-28T15:53:42Z</time>
      </trkpt>
      <trkpt lat="47.08164" lon="-1.3648">
        <ele>46</ele>
        <time>2016-04-28T15:55:42Z</time>
      </trkpt>
      <trkpt lat="47.08185" lon="-1.36431">
        <ele>47</ele>
        <time>2016-04-28T15:57:42Z</time>
      </trkpt>
      <trkpt lat="47.08186" lon="-1.36403">
        <ele>47</ele>
        <time>2016-04-28T15:59:42Z</time>
      </trkpt>
      <trkpt lat="47.08204" lon="-1.3635">
        <ele>47</ele>
        <time>2016-04-28T16:01:42Z</time>
      </trkpt>
      <trkpt lat="47.08179" lon="-1.3628">
        <ele>47</ele>
        <time>2016-04-28T16:03:42Z</time>
      </trkpt>
      <trkpt lat="47.08193" lon="-1.362">
        <ele>48</ele>
        <time>2016-04-28T16:05:42Z</time>
      </trkpt>
      <trkpt lat="47.08217" lon="-1.35989">
        <ele>47</ele>
        <time>2016-04-28T16:07:42Z</time>
      </trkpt>
      <trkpt lat="47.08234" lon="-1.3592">
        <ele>45</ele>
        <time>2016-04-28T16:09:42Z</time>
      </trkpt>
      <trkpt lat="47.08258" lon="-1.35807">
        <ele>47</ele>
        <time>2016-04-28T16:11:42Z</time>
      </trkpt>
      <trkpt lat="47.08267" lon="-1.35732">
        <ele>47</ele>
        <time>2016-04-28T16:13:42Z</time>
      </trkpt>
      <trkpt lat="47.08289" lon="-1.35593">
        <ele>41</ele>
        <time>2016-04-28T16:15:42Z</time>
      </trkpt>
      <trkpt lat="47.08299" lon="-1.35509">
        <ele>40</ele>
        <time>2016-04-28T16:17:42Z</time>
      </trkpt>
      <trkpt lat="47.08295" lon="-1.35459">
        <ele>40</ele>
        <time>2016-04-28T16:19:42Z</time>
      </trkpt>
      <trkpt lat="47.08282" lon="-1.3538">
        <ele>40</ele>
        <time>2016-04-28T16:21:42Z</time>
      </trkpt>
      <trkpt lat="47.08282" lon="-1.35351">
        <ele>41</ele>
        <time>2016-04-28T16:23:42Z</time>
      </trkpt>
      <trkpt lat="47.08289" lon="-1.35336">
        <ele>41</ele>
        <time>2016-04-28T16:25:42Z</time>
      </trkpt>
      <trkpt lat="47.08304" lon="-1.35322">
        <ele>40</ele>
        <time>2016-04-28T16:27:42Z</time>
      </trkpt>
      <trkpt lat="47.08314" lon="-1.35292">
        <ele>40</ele>
        <time>2016-04-28T16:29:42Z</time>
      </trkpt>
      <trkpt lat="47.08303" lon="-1.35065">
        <ele>34</ele>
        <time>2016-04-28T16:31:42Z</time>
      </trkpt>
      <trkpt lat="47.08289" lon="-1.35046">
        <ele>34</ele>
        <time>2016-04-28T16:33:42Z</time>
      </trkpt>
      <trkpt lat="47.08251" lon="-1.35012">
        <ele>32</ele>
        <time>2016-04-28T16:35:42Z</time>
      </trkpt>
      <trkpt lat="47.08227" lon="-1.3484">
        <ele>31</ele>
        <time>2016-04-28T16:37:42Z</time>
      </trkpt>
      <trkpt lat="47.08226" lon="-1.34811">
        <ele>31</ele>
        <time>2016-04-28T16:39:42Z</time>
      </trkpt>
      <trkpt lat="47.08304" lon="-1.34787">
        <ele>31</ele>
        <time>2016-04-28T16:41:42Z</time>
      </trkpt>
      <trkpt lat="47.08366" lon="-1.34763">
        <ele>32</ele>
        <time>2016-04-28T16:43:42Z</time>
      </trkpt>
      <trkpt lat="47.08418" lon="-1.34721">
        <ele>32</ele>
        <time>2016-04-28T16:45:42Z</time>
      </trkpt>
      <trkpt lat="47.08471" lon="-1.34629">
        <ele>33</ele>
        <time>2016-04-28T16:47:42Z</time>
      </trkpt>
      <trkpt lat="47.08518" lon="-1.34553">
        <ele>33</ele>
        <time>2016-04-28T16:49:42Z</time>
      </trkpt>
      <trkpt lat="47.08695" lon="-1.34453">
        <ele>34</ele>
        <time>2016-04-28T16:51:42Z</time>
      </trkpt>
      <trkpt lat="47.08784" lon="-1.34406">
        <ele>34</ele>
        <time>2016-04-28T16:53:42Z</time>
      </trkpt>
      <trkpt lat="47.08829" lon="-1.34381">
        <ele>35</ele>
        <time>2016-04-28T16:55:42Z</time>
      </trkpt>
      <trkpt lat="47.08863" lon="-1.34343">
        <ele>36</ele>
        <time>2016-04-28T16:57:42Z</time>
      </trkpt>
      <trkpt lat="47.08929" lon="-1.34248">
        <ele>34</ele>
        <time>2016-04-28T16:59:42Z</time>
      </trkpt>
      <trkpt lat="47.08962" lon="-1.34214">
        <ele>34</ele>
        <time>2016-04-28T17:01:42Z</time>
      </trkpt>
      <trkpt lat="47.09039" lon="-1.34038">
        <ele>35</ele>
        <time>2016-04-28T17:03:42Z</time>
      </trkpt>
      <trkpt lat="47.0909" lon="-1.33928">
        <ele>37</ele>
        <time>2016-04-28T17:05:42Z</time>
      </trkpt>
      <trkpt lat="47.09123" lon="-1.3387">
        <ele>36</ele>
        <time>2016-04-28T17:07:42Z</time>
      </trkpt>
      <trkpt lat="47.09035" lon="-1.33718">
        <ele>35</ele>
        <time>2016-04-28T17:09:42Z</time>
      </trkpt>
      <trkpt lat="47.08976" lon="-1.33613">
        <ele>36</ele>
        <time>2016-04-28T17:11:42Z</time>
      </trkpt>
      <trkpt lat="47.08923" lon="-1.33499">
        <ele>35</ele>
        <time>2016-04-28T17:13:42Z</time>
      </trkpt>
      <trkpt lat="47.0882" lon="-1.33265">
        <ele>32</ele>
        <time>2016-04-28T17:15:42Z</time>
      </trkpt>
      <trkpt lat="47.0878" lon="-1.33173">
        <ele>32</ele>
        <time>2016-04-28T17:17:42Z</time>
      </trkpt>
      <trkpt lat="47.08679" lon="-1.33107">
        <ele>31</ele>
        <time>2016-04-28T17:19:42Z</time>
      </trkpt>
      <trkpt lat="47.08642" lon="-1.33153">
        <ele>31</ele>
        <time>2016-04-28T17:21:42Z</time>
      </trkpt>
      <trkpt lat="47.0863" lon="-1.33163">
        <ele>31</ele>
        <time>2016-04-28T17:23:42Z</time>
      </trkpt>
      <trkpt lat="47.08616" lon="-1.33141">
        <ele>30</ele>
        <time>2016-04-28T17:25:42Z</time>
      </trkpt>
      <trkpt lat="47.08562" lon="-1.3303">
        <ele>29</ele>
        <time>2016-04-28T17:27:42Z</time>
      </trkpt>
      <trkpt lat="47.08553" lon="-1.33027">
        <ele>28</ele>
        <time>2016-04-28T17:29:42Z</time>
      </trkpt>
      <trkpt lat="47.08541" lon="-1.33032">
        <ele>28</ele>
        <time>2016-04-28T17:31:42Z</time>
      </trkpt>
      <trkpt lat="47.08468" lon="-1.32973">
        <ele>26</ele>
        <time>2016-04-28T17:33:42Z</time>
      </trkpt>
      <trkpt lat="47.0841" lon="-1.32923">
        <ele>26</ele>
        <time>2016-04-28T17:35:42Z</time>
      </trkpt>
      <trkpt lat="47.08383" lon="-1.32913">
        <ele>27</ele>
        <time>2016-04-28T17:37:42Z</time>
      </trkpt>
      <trkpt lat="47.08291" lon="-1.32884">
        <ele>27</ele>
        <time>2016-04-28T17:39:42Z</time>
      </trkpt>
      <trkpt lat="47.08254" lon="-1.32851">
        <ele>28</ele>
        <time>2016-04-28T17:41:42Z</time>
      </trkpt>
      <trkpt lat="47.08209" lon="-1.32779">
        <ele>28</ele>
        <time>2016-04-28T17:43:42Z</time>
      </trkpt>
      <trkpt lat="47.08172" lon="-1.32733">
        <ele>27</ele>
        <time>2016-04-28T17:45:42Z</time>
      </trkpt>
      <trkpt lat="47.08133" lon="-1.32701">
        <ele>28</ele>
        <time>2016-04-28T17:47:42Z</time>
      </trkpt>
      <trkpt lat="47.08161" lon="-1.32575">
        <ele>27</ele>
        <time>2016-04-28T17:49:42Z</time>
      </trkpt>
      <trkpt lat="47.08223" lon="-1.32314">
        <ele>26</ele>
        <time>2016-04-28T17:51:42Z</time>
      </trkpt>
      <trkpt lat="47.08233" lon="-1.32262">
        <ele>27</ele>
        <time>2016-04-28T17:53:42Z</time>
      </trkpt>
      <trkpt lat="47.08237" lon="-1.3218">
        <ele>26</ele>
        <time>2016-04-28T17:55:42Z</time>
      </trkpt>
      <trkpt lat="47.08238" lon="-1.31904">
        <ele>27</ele>
        <time>2016-04-28T17:57:42Z</time>
      </trkpt>
      <trkpt lat="47.08238" lon="-1.31855">
        <ele>28</ele>
        <time>2016-04-28T17:59:42Z</time>
      </trkpt>
      <trkpt lat="47.08217" lon="-1.31771">
        <ele>28</ele>
        <time>2016-04-28T18:01:42Z</time>
      </trkpt>
      <trkpt lat="47.08179" lon="-1.31651">
        <ele>31</ele>
        <time>2016-04-28T18:03:42Z</time>
      </trkpt>
      <trkpt lat="47.08159" lon="-1.3159">
        <ele>33</ele>
        <time>2016-04-28T18:05:42Z</time>
      </trkpt>
      <trkpt lat="47.08173" lon="-1.31522">
        <ele>32</ele>
        <time>2016-04-28T18:07:42Z</time>
      </trkpt>
      <trkpt lat="47.08188" lon="-1.31439">
        <ele>33</ele>
        <time>2016-04-28T18:09:42Z</time>
      </trkpt>
      <trkpt lat="47.08201" lon="-1.31388">
        <ele>34</ele>
        <time>2016-04-28T18:11:42Z</time>
      </trkpt>
      <trkpt lat="47.0825" lon="-1.31299">
        <ele>35</ele>
        <time>2016-04-28T18:13:42Z</time>
      </trkpt>
      <trkpt lat="47.08323" lon="-1.31345">
        <ele>31</ele>
        <time>2016-04-28T18:15:42Z</time>
      </trkpt>
      <trkpt lat="47.08411" lon="-1.31402">
        <ele>28</ele>
        <time>2016-04-28T18:17:42Z</time>
      </trkpt>
      <trkpt lat="47.08473" lon="-1.31446">
        <ele>28</ele>
        <time>2016-04-28T18:19:42Z</time>
      </trkpt>
      <trkpt lat="47.0848" lon="-1.31466">
        <ele>28</ele>
        <time>2016-04-28T18:21:42Z</time>
      </trkpt>
      <trkpt lat="47.08476" lon="-1.31509">
        <ele>28</ele>
        <time>2016-04-28T18:23:42Z</time>
      </trkpt>
      <trkpt lat="47.08464" lon="-1.31541">
        <ele>28</ele>
        <time>2016-04-28T18:25:42Z</time>
      </trkpt>
      <trkpt lat="47.08447" lon="-1.31564">
        <ele>28</ele>
        <time>2016-04-28T18:27:42Z</time>
      </trkpt>
      <trkpt lat="47.08437" lon="-1.31587">
        <ele>28</ele>
        <time>2016-04-28T18:29:42Z</time>
      </trkpt>
      <trkpt lat="47.08458" lon="-1.31604">
        <ele>27</ele>
        <time>2016-04-28T18:31:42Z</time>
      </trkpt>
      <trkpt lat="47.08466" lon="-1.31624">
        <ele>27</ele>
        <time>2016-04-28T18:33:42Z</time>
      </trkpt>
      <trkpt lat="47.08478" lon="-1.31631">
        <ele>26</ele>
        <time>2016-04-28T18:35:42Z</time>
      </trkpt>
      <trkpt lat="47.08493" lon="-1.31628">
        <ele>26</ele>
        <time>2016-04-28T18:37:42Z</time>
      </trkpt>
      <trkpt lat="47.08505" lon="-1.31634">
        <ele>25</ele>
        <time>2016-04-28T18:39:42Z</time>
      </trkpt>
      <trkpt lat="47.08546" lon="-1.31687">
        <ele>25</ele>
        <time>2016-04-28T18:41:42Z</time>
      </trkpt>
      <trkpt lat="47.08588" lon="-1.31738">
        <ele>24</ele>
        <time>2016-04-28T18:43:42Z</time>
      </trkpt>
      <trkpt lat="47.08622" lon="-1.31738">
        <ele>25</ele>
        <time>2016-04-28T18:45:42Z</time>
      </trkpt>
      <trkpt lat="47.0867" lon="-1.31742">
        <ele>26</ele>
        <time>2016-04-28T18:47:42Z</time>
      </trkpt>
      <trkpt lat="47.08696" lon="-1.31747">
        <ele>26</ele>
        <time>2016-04-28T18:49:42Z</time>
      </trkpt>
      <trkpt lat="47.08712" lon="-1.31744">
        <ele>27</ele>
        <time>2016-04-28T18:51:42Z</time>
      </trkpt>
      <trkpt lat="47.08729" lon="-1.31757">
        <ele>27</ele>
        <time>2016-04-28T18:53:42Z</time>
      </trkpt>
      <trkpt lat="47.08748" lon="-1.31758">
        <ele>27</ele>
        <time>2016-04-28T18:55:42Z</time>
      </trkpt>
      <trkpt lat="47.08808" lon="-1.31717">
        <ele>29</ele>
        <time>2016-04-28T18:57:42Z</time>
      </trkpt>
      <trkpt lat="47.08835" lon="-1.31696">
        <ele>29</ele>
        <time>2016-04-28T18:59:42Z</time>
      </trkpt>
      <trkpt lat="47.08846" lon="-1.31676">
        <ele>30</ele>
        <time>2016-04-28T19:01:42Z</time>
      </trkpt>
      <trkpt lat="47.08852" lon="-1.31526">
        <ele>28</ele>
        <time>2016-04-28T19:03:42Z</time>
      </trkpt>
      <trkpt lat="47.08897" lon="-1.3145">
        <ele>26</ele>
        <time>2016-04-28T19:05:42Z</time>
      </trkpt>
      <trkpt lat="47.08931" lon="-1.31511">
        <ele>27</ele>
        <time>2016-04-28T19:07:42Z</time>
      </trkpt>
      <trkpt lat="47.08947" lon="-1.31467">
        <ele>27</ele>
        <time>2016-04-28T19:09:42Z</time>
      </trkpt>
      <trkpt lat="47.08962" lon="-1.31431">
        <ele>26</ele>
        <time>2016-04-28T19:11:42Z</time>
      </trkpt>
      <trkpt lat="47.08995" lon="-1.31394">
        <ele>25</ele>
        <time>2016-04-28T19:13:42Z</time>
      </trkpt>
      <trkpt lat="47.09035" lon="-1.31353">
        <ele>25</ele>
        <time>2016-04-28T19:15:42Z</time>
      </trkpt>
      <trkpt lat="47.09074" lon="-1.31337">
        <ele>24</ele>
        <time>2016-04-28T19:17:42Z</time>
      </trkpt>
      <trkpt lat="47.09125" lon="-1.31326">
        <ele>25</ele>
        <time>2016-04-28T19:19:42Z</time>
      </trkpt>
      <trkpt lat="47.09165" lon="-1.3131">
        <ele>26</ele>
        <time>2016-04-28T19:21:42Z</time>
      </trkpt>
      <trkpt lat="47.09187" lon="-1.31292">
        <ele>26</ele>
        <time>2016-04-28T19:23:42Z</time>
      </trkpt>
      <trkpt lat="47.09205" lon="-1.31259">
        <ele>25</ele>
        <time>2016-04-28T19:25:42Z</time>
      </trkpt>
      <trkpt lat="47.09284" lon="-1.31156">
        <ele>23</ele>
        <time>2016-04-28T19:27:42Z</time>
      </trkpt>
      <trkpt lat="47.0931" lon="-1.31158">
        <ele>23</ele>
        <time>2016-04-28T19:29:42Z</time>
      </trkpt>
      <trkpt lat="47.09338" lon="-1.31142">
        <ele>24</ele>
        <time>2016-04-28T19:31:42Z</time>
      </trkpt>
      <trkpt lat="47.09358" lon="-1.31149">
        <ele>24</ele>
        <time>2016-04-28T19:33:42Z</time>
      </trkpt>
      <trkpt lat="47.09369" lon="-1.31166">
        <ele>24</ele>
        <time>2016-04-28T19:35:42Z</time>
      </trkpt>
      <trkpt lat="47.09391" lon="-1.31209">
        <ele>25</ele>
        <time>2016-04-28T19:37:42Z</time>
      </trkpt>
      <trkpt lat="47.09425" lon="-1.31199">
        <ele>26</ele>
        <time>2016-04-28T19:39:42Z</time>
      </trkpt>
      <trkpt lat="47.09442" lon="-1.31214">
        <ele>27</ele>
        <time>2016-04-28T19:41:42Z</time>
      </trkpt>
      <trkpt lat="47.09457" lon="-1.31252">
        <ele>27</ele>
        <time>2016-04-28T19:43:42Z</time>
      </trkpt>
      <trkpt lat="47.09473" lon="-1.31298">
        <ele>27</ele>
        <time>2016-04-28T19:45:42Z</time>
      </trkpt>
      <trkpt lat="47.09501" lon="-1.31335">
        <ele>26</ele>
        <time>2016-04-28T19:47:42Z</time>
      </trkpt>
      <trkpt lat="47.0954" lon="-1.31369">
        <ele>26</ele>
        <time>2016-04-28T19:49:42Z</time>
      </trkpt>
      <trkpt lat="47.09582" lon="-1.31396">
        <ele>25</ele>
        <time>2016-04-28T19:51:42Z</time>
      </trkpt>
      <trkpt lat="47.09675" lon="-1.31388">
        <ele>24</ele>
        <time>2016-04-28T19:53:42Z</time>
      </trkpt>
      <trkpt lat="47.09698" lon="-1.3138">
        <ele>24</ele>
        <time>2016-04-28T19:55:42Z</time>
      </trkpt>
      <trkpt lat="47.09717" lon="-1.31365">
        <ele>24</ele>
        <time>2016-04-28T19:57:42Z</time>
      </trkpt>
      <trkpt lat="47.0976" lon="-1.31344">
        <ele>23</ele>
        <time>2016-04-28T19:59:42Z</time>
      </trkpt>
      <trkpt lat="47.09832" lon="-1.31319">
        <ele>23</ele>
        <time>2016-04-28T20:01:42Z</time>
      </trkpt>
      <trkpt lat="47.09899" lon="-1.31329">
        <ele>22</ele>
        <time>2016-04-28T20:03:42Z</time>
      </trkpt>
      <trkpt lat="47.09959" lon="-1.31337">
        <ele>22</ele>
        <time>2016-04-28T20:05:42Z</time>
      </trkpt>
      <trkpt lat="47.09989" lon="-1.31336">
        <ele>22</ele>
        <time>2016-04-28T20:07:42Z</time>
      </trkpt>
      <trkpt lat="47.10017" lon="-1.31314">
        <ele>23</ele>
        <time>2016-04-28T20:09:42Z</time>
      </trkpt>
      <trkpt lat="47.10031" lon="-1.31328">
        <ele>22</ele>
        <time>2016-04-28T20:11:42Z</time>
      </trkpt>
      <trkpt lat="47.10046" lon="-1.31331">
        <ele>22</ele>
        <time>2016-04-28T20:13:42Z</time>
      </trkpt>
      <trkpt lat="47.10073" lon="-1.31311">
        <ele>23</ele>
        <time>2016-04-28T20:15:42Z</time>
      </trkpt>
      <trkpt lat="47.10087" lon="-1.31297">
        <ele>24</ele>
        <time>2016-04-28T20:17:42Z</time>
      </trkpt>
      <trkpt lat="47.10146" lon="-1.31273">
        <ele>23</ele>
        <time>2016-04-28T20:19:42Z</time>
      </trkpt>
      <trkpt lat="47.10171" lon="-1.31269">
        <ele>22</ele>
        <time>2016-04-28T20:21:42Z</time>
      </trkpt>
      <trkpt lat="47.10214" lon="-1.31275">
        <ele>20</ele>
        <time>2016-04-28T20:23:42Z</time>
      </trkpt>
      <trkpt lat="47.10235" lon="-1.3126">
        <ele>19</ele>
        <time>2016-04-28T20:25:42Z</time>
      </trkpt>
      <trkpt lat="47.10232" lon="-1.31278">
        <ele>19</ele>
        <time>2016-04-28T20:27:42Z</time>
      </trkpt>
      <trkpt lat="47.10221" lon="-1.31368">
        <ele>19</ele>
        <time>2016-04-28T20:29:42Z</time>
      </trkpt>
      <trkpt lat="47.10205" lon="-1.31501">
        <ele>28</ele>
        <time>2016-04-28T20:31:42Z</time>
      </trkpt>
      <trkpt lat="47.10191" lon="-1.31635">
        <ele>34</ele>
        <time>2016-04-28T20:33:42Z</time>
      </trkpt>
      <trkpt lat="47.10212" lon="-1.31765">
        <ele>34</ele>
        <time>2016-04-28T20:35:42Z</time>
      </trkpt>
      <trkpt lat="47.10263" lon="-1.31877">
        <ele>34</ele>
        <time>2016-04-28T20:37:42Z</time>
      </trkpt>
      <trkpt lat="47.1032" lon="-1.31955">
        <ele>34</ele>
        <time>2016-04-28T20:39:42Z</time>
      </trkpt>
      <trkpt lat="47.10359" lon="-1.31952">
        <ele>34</ele>
        <time>2016-04-28T20:41:42Z</time>
      </trkpt>
      <trkpt lat="47.1043" lon="-1.31968">
        <ele>34</ele>
        <time>2016-04-28T20:43:42Z</time>
      </trkpt>
      <trkpt lat="47.10484" lon="-1.31994">
        <ele>35</ele>
        <time>2016-04-28T20:45:42Z</time>
      </trkpt>
      <trkpt lat="47.1051" lon="-1.32026">
        <ele>35</ele>
        <time>2016-04-28T20:47:42Z</time>
      </trkpt>
      <trkpt lat="47.10534" lon="-1.32052">
        <ele>35</ele>
        <time>2016-04-28T20:49:42Z</time>
      </trkpt>
      <trkpt lat="47.10597" lon="-1.32057">
        <ele>36</ele>
        <time>2016-04-28T20:51:42Z</time>
      </trkpt>
      <trkpt lat="47.10651" lon="-1.32066">
        <ele>37</ele>
        <time>2016-04-28T20:53:42Z</time>
      </trkpt>
      <trkpt lat="47.10689" lon="-1.32085">
        <ele>38</ele>
        <time>2016-04-28T20:55:42Z</time>
      </trkpt>
      <trkpt lat="47.10764" lon="-1.3216">
        <ele>37</ele>
        <time>2016-04-28T20:57:42Z</time>
      </trkpt>
      <trkpt lat="47.10872" lon="-1.32326">
        <ele>38</ele>
        <time>2016-04-28T20:59:42Z</time>
      </trkpt>
      <trkpt lat="47.10914" lon="-1.32429">
        <ele>39</ele>
        <time>2016-04-28T21:01:42Z</time>
      </trkpt>
      <trkpt lat="47.10903" lon="-1.32548">
        <ele>39</ele>
        <time>2016-04-28T21:03:42Z</time>
      </trkpt>
      <trkpt lat="47.10901" lon="-1.32615">
        <ele>38</ele>
        <time>2016-04-28T21:05:42Z</time>
      </trkpt>
      <trkpt lat="47.10915" lon="-1.32681">
        <ele>38</ele>
        <time>2016-04-28T21:07:42Z</time>
      </trkpt>
      <trkpt lat="47.10975" lon="-1.32786">
        <ele>39</ele>
        <time>2016-04-28T21:09:42Z</time>
      </trkpt>
      <trkpt lat="47.11012" lon="-1.32759">
        <ele>39</ele>
        <time>2016-04-28T21:11:42Z</time>
      </trkpt>
      <trkpt lat="47.11099" lon="-1.327">
        <ele>41</ele>
        <time>2016-04-28T21:13:42Z</time>
      </trkpt>
      <trkpt lat="47.11151" lon="-1.32669">
        <ele>42</ele>
        <time>2016-04-28T21:15:42Z</time>
      </trkpt>
      <trkpt lat="47.11159" lon="-1.32681">
        <ele>42</ele>
        <time>2016-04-28T21:17:42Z</time>
      </trkpt>
      <trkpt lat="47.11183" lon="-1.32671">
        <ele>42</ele>
        <time>2016-04-28T21:19:42Z</time>
      </trkpt>
      <trkpt lat="47.11273" lon="-1.32651">
        <ele>41</ele>
        <time>2016-04-28T21:21:42Z</time>
      </trkpt>
      <trkpt lat="47.11341" lon="-1.32646">
        <ele>39</ele>
        <time>2016-04-28T21:23:42Z</time>
      </trkpt>
      <trkpt lat="47.1136" lon="-1.32623">
        <ele>39</ele>
        <time>2016-04-28T21:25:42Z</time>
      </trkpt>
      <trkpt lat="47.11429" lon="-1.32534">
        <ele>35</ele>
        <time>2016-04-28T21:27:42Z</time>
      </trkpt>
      <trkpt lat="47.11498" lon="-1.32448">
        <ele>33</ele>
        <time>2016-04-28T21:29:42Z</time>
      </trkpt>
      <trkpt lat="47.11544" lon="-1.32377">
        <ele>30</ele>
        <time>2016-04-28T21:31:42Z</time>
      </trkpt>
      <trkpt lat="47.11555" lon="-1.32347">
        <ele>29</ele>
        <time>2016-04-28T21:33:42Z</time>
      </trkpt>
      <trkpt lat="47.11568" lon="-1.32316">
        <ele>28</ele>
        <time>2016-04-28T21:35:42Z</time>
      </trkpt>
      <trkpt lat="47.11585" lon="-1.32321">
        <ele>28</ele>
        <time>2016-04-28T21:37:42Z</time>
      </trkpt>
      <trkpt lat="47.1161" lon="-1.32397">
        <ele>30</ele>
        <time>2016-04-28T21:39:42Z</time>
      </trkpt>
      <trkpt lat="47.11677" lon="-1.32456">
        <ele>30</ele>
        <time>2016-04-28T21:41:42Z</time>
      </trkpt>
      <trkpt lat="47.11773" lon="-1.32546">
        <ele>27</ele>
        <time>2016-04-28T21:43:42Z</time>
      </trkpt>
      <trkpt lat="47.11796" lon="-1.32557">
        <ele>25</ele>
        <time>2016-04-28T21:45:42Z</time>
      </trkpt>
      <trkpt lat="47.11808" lon="-1.32549">
        <ele>24</ele>
        <time>2016-04-28T21:47:42Z</time>
      </trkpt>
      <trkpt lat="47.11788" lon="-1.32596">
        <ele>26</ele>
        <time>2016-04-28T21:49:42Z</time>
      </trkpt>
      <trkpt lat="47.11734" lon="-1.32711">
        <ele>29</ele>
        <time>2016-04-28T21:51:42Z</time>
      </trkpt>
      <trkpt lat="47.1177" lon="-1.32834">
        <ele>30</ele>
        <time>2016-04-28T21:53:42Z</time>
      </trkpt>
      <trkpt lat="47.11853" lon="-1.32774">
        <ele>30</ele>
        <time>2016-04-28T21:55:42Z</time>
      </trkpt>
      <trkpt lat="47.1191" lon="-1.32755">
        <ele>31</ele>
        <time>2016-04-28T21:57:42Z</time>
      </trkpt>
      <trkpt lat="47.11932" lon="-1.32728">
        <ele>30</ele>
        <time>2016-04-28T21:59:42Z</time>
      </trkpt>
      <trkpt lat="47.12014" lon="-1.32803">
        <ele>32</ele>
        <time>2016-04-28T22:01:42Z</time>
      </trkpt>
      <trkpt lat="47.12037" lon="-1.32837">
        <ele>32</ele>
        <time>2016-04-28T22:03:42Z</time>
      </trkpt>
      <trkpt lat="47.12066" lon="-1.32871">
        <ele>33</ele>
        <time>2016-04-28T22:05:42Z</time>
      </trkpt>
      <trkpt lat="47.12079" lon="-1.3284">
        <ele>32</ele>
        <time>2016-04-28T22:07:42Z</time>
      </trkpt>
      <trkpt lat="47.12118" lon="-1.32757">
        <ele>33</ele>
        <time>2016-04-28T22:09:42Z</time>
      </trkpt>
      <trkpt lat="47.12162" lon="-1.32703">
        <ele>31</ele>
        <time>2016-04-28T22:11:42Z</time>
      </trkpt>
      <trkpt lat="47.12186" lon="-1.32713">
        <ele>30</ele>
        <time>2016-04-28T22:13:42Z</time>
      </trkpt>
      <trkpt lat="47.1228" lon="-1.32827">
        <ele>29</ele>
        <time>2016-04-28T22:15:42Z</time>
      </trkpt>
      <trkpt lat="47.12304" lon="-1.32911">
        <ele>28</ele>
        <time>2016-04-28T22:17:42Z</time>
      </trkpt>
      <trkpt lat="47.12351" lon="-1.33033">
        <ele>25</ele>
        <time>2016-04-28T22:19:42Z</time>
      </trkpt>
      <trkpt lat="47.12376" lon="-1.33088">
        <ele>25</ele>
        <time>2016-04-28T22:21:42Z</time>
      </trkpt>
      <trkpt lat="47.12417" lon="-1.33127">
        <ele>26</ele>
        <time>2016-04-28T22:23:42Z</time>
      </trkpt>
      <trkpt lat="47.12497" lon="-1.3319">
        <ele>27</ele>
        <time>2016-04-28T22:25:42Z</time>
      </trkpt>
      <trkpt lat="47.12527" lon="-1.332">
        <ele>26</ele>
        <time>2016-04-28T22:27:42Z</time>
      </trkpt>
      <trkpt lat="47.12524" lon="-1.33224">
        <ele>26</ele>
        <time>2016-04-28T22:29:42Z</time>
      </trkpt>
      <trkpt lat="47.12499" lon="-1.33282">
        <ele>29</ele>
        <time>2016-04-28T22:31:42Z</time>
      </trkpt>
      <trkpt lat="47.12484" lon="-1.3333">
        <ele>31</ele>
        <time>2016-04-28T22:33:42Z</time>
      </trkpt>
      <trkpt lat="47.12537" lon="-1.33381">
        <ele>28</ele>
        <time>2016-04-28T22:35:42Z</time>
      </trkpt>
      <trkpt lat="47.126" lon="-1.33485">
        <ele>25</ele>
        <time>2016-04-28T22:37:42Z</time>
      </trkpt>
      <trkpt lat="47.12626" lon="-1.33536">
        <ele>24</ele>
        <time>2016-04-28T22:39:42Z</time>
      </trkpt>
      <trkpt lat="47.12629" lon="-1.33582">
        <ele>24</ele>
        <time>2016-04-28T22:41:42Z</time>
      </trkpt>
      <trkpt lat="47.12637" lon="-1.33644">
        <ele>23</ele>
        <time>2016-04-28T22:43:42Z</time>
      </trkpt>
      <trkpt lat="47.12655" lon="-1.33741">
        <ele>20</ele>
        <time>2016-04-28T22:45:42Z</time>
      </trkpt>
      <trkpt lat="47.12681" lon="-1.33875">
        <ele>18</ele>
        <time>2016-04-28T22:47:42Z</time>
      </trkpt>
      <trkpt lat="47.12704" lon="-1.34007">
        <ele>19</ele>
        <time>2016-04-28T22:49:42Z</time>
      </trkpt>
      <trkpt lat="47.12726" lon="-1.34081">
        <ele>18</ele>
        <time>2016-04-28T22:51:42Z</time>
      </trkpt>
      <trkpt lat="47.12721" lon="-1.34121">
        <ele>19</ele>
        <time>2016-04-28T22:53:42Z</time>
      </trkpt>
      <trkpt lat="47.12729" lon="-1.34269">
        <ele>23</ele>
        <time>2016-04-28T22:55:42Z</time>
      </trkpt>
      <trkpt lat="47.12734" lon="-1.34322">
        <ele>25</ele>
        <time>2016-04-28T22:57:42Z</time>
      </trkpt>
      <trkpt lat="47.12782" lon="-1.34422">
        <ele>30</ele>
        <time>2016-04-28T22:59:42Z</time>
      </trkpt>
      <trkpt lat="47.1278" lon="-1.34515">
        <ele>34</ele>
        <time>2016-04-28T23:01:42Z</time>
      </trkpt>
      <trkpt lat="47.12881" lon="-1.34717">
        <ele>39</ele>
        <time>2016-04-28T23:03:42Z</time>
      </trkpt>
      <trkpt lat="47.1293" lon="-1.34915">
        <ele>41</ele>
        <time>2016-04-28T23:05:42Z</time>
      </trkpt>
      <trkpt lat="47.12967" lon="-1.34882">
        <ele>40</ele>
        <time>2016-04-28T23:07:42Z</time>
      </trkpt>
      <trkpt lat="47.13016" lon="-1.34847">
        <ele>40</ele>
        <time>2016-04-28T23:09:42Z</time>
      </trkpt>
      <trkpt lat="47.13069" lon="-1.34808">
        <ele>37</ele>
        <time>2016-04-28T23:11:42Z</time>
      </trkpt>
      <trkpt lat="47.13112" lon="-1.34801">
        <ele>37</ele>
        <time>2016-04-28T23:13:42Z</time>
      </trkpt>
      <trkpt lat="47.13231" lon="-1.34789">
        <ele>36</ele>
        <time>2016-04-28T23:15:42Z</time>
      </trkpt>
      <trkpt lat="47.13338" lon="-1.34771">
        <ele>35</ele>
        <time>2016-04-28T23:17:42Z</time>
      </trkpt>
      <trkpt lat="47.13378" lon="-1.34724">
        <ele>35</ele>
        <time>2016-04-28T23:19:42Z</time>
      </trkpt>
      <trkpt lat="47.13422" lon="-1.34726">
        <ele>35</ele>
        <time>2016-04-28T23:21:42Z</time>
      </trkpt>
      <trkpt lat="47.13504" lon="-1.34757">
        <ele>33</ele>
        <time>2016-04-28T23:23:42Z</time>
      </trkpt>
      <trkpt lat="47.13623" lon="-1.34834">
        <ele>28</ele>
        <time>2016-04-28T23:25:42Z</time>
      </trkpt>
      <trkpt lat="47.13638" lon="-1.34773">
        <ele>27</ele>
        <time>2016-04-28T23:27:42Z</time>
      </trkpt>
      <trkpt lat="47.13642" lon="-1.34584">
        <ele>21</ele>
        <time>2016-04-28T23:29:42Z</time>
      </trkpt>
      <trkpt lat="47.1367" lon="-1.34556">
        <ele>19</ele>
        <time>2016-04-28T23:31:42Z</time>
      </trkpt>
      <trkpt lat="47.13712" lon="-1.34546">
        <ele>14</ele>
        <time>2016-04-28T23:33:42Z</time>
      </trkpt>
      <trkpt lat="47.13737" lon="-1.34573">
        <ele>12</ele>
        <time>2016-04-28T23:35:42Z</time>
      </trkpt>
      <trkpt lat="47.13745" lon="-1.34598">
        <ele>11</ele>
        <time>2016-04-28T23:37:42Z</time>
      </trkpt>
      <trkpt lat="47.1374" lon="-1.34662">
        <ele>13</ele>
        <time>2016-04-28T23:39:42Z</time>
      </trkpt>
      <trkpt lat="47.13742" lon="-1.34735">
        <ele>15</ele>
        <time>2016-04-28T23:41:42Z</time>
      </trkpt>
      <trkpt lat="47.13748" lon="-1.34819">
        <ele>16</ele>
        <time>2016-04-28T23:43:42Z</time>
      </trkpt>
      <trkpt lat="47.13786" lon="-1.34985">
        <ele>11</ele>
        <time>2016-04-28T23:45:42Z</time>
      </trkpt>
      <trkpt lat="47.13782" lon="-1.35066">
        <ele>11</ele>
        <time>2016-04-28T23:47:42Z</time>
      </trkpt>
      <trkpt lat="47.13764" lon="-1.35124">
        <ele>11</ele>
        <time>2016-04-28T23:49:42Z</time>
      </trkpt>
      <trkpt lat="47.13715" lon="-1.35232">
        <ele>11</ele>
        <time>2016-04-28T23:51:42Z</time>
      </trkpt>
      <trkpt lat="47.13726" lon="-1.35324">
        <ele>9</ele>
        <time>2016-04-28T23:53:42Z</time>
      </trkpt>
      <trkpt lat="47.13706" lon="-1.35344">
        <ele>10</ele>
        <time>2016-04-28T23:55:42Z</time>
      </trkpt>
      <trkpt lat="47.13684" lon="-1.3537">
        <ele>12</ele>
        <time>2016-04-28T23:57:42Z</time>
      </trkpt>
      <trkpt lat="47.13661" lon="-1.35372">
        <ele>14</ele>
        <time>2016-04-28T23:59:42Z</time>
      </trkpt>
      <trkpt lat="47.13634" lon="-1.3542">
        <ele>16</ele>
        <time>2016-04-29T00:01:42Z</time>
      </trkpt>
      <trkpt lat="47.13608" lon="-1.35456">
        <ele>17</ele>
        <time>2016-04-29T00:03:42Z</time>
      </trkpt>
      <trkpt lat="47.1356" lon="-1.35503">
        <ele>17</ele>
        <time>2016-04-29T00:05:42Z</time>
      </trkpt>
      <trkpt lat="47.1354" lon="-1.35529">
        <ele>18</ele>
        <time>2016-04-29T00:07:42Z</time>
      </trkpt>
      <trkpt lat="47.1354" lon="-1.35537">
        <ele>18</ele>
        <time>2016-04-29T00:09:42Z</time>
      </trkpt>
      <trkpt lat="47.1348" lon="-1.35558">
        <ele>19</ele>
        <time>2016-04-29T00:11:42Z</time>
      </trkpt>
      <trkpt lat="47.13392" lon="-1.35588">
        <ele>21</ele>
        <time>2016-04-29T00:13:42Z</time>
      </trkpt>
      <trkpt lat="47.13346" lon="-1.3561">
        <ele>22</ele>
        <time>2016-04-29T00:15:42Z</time>
      </trkpt>
      <trkpt lat="47.13356" lon="-1.35678">
        <ele>20</ele>
        <time>2016-04-29T00:17:42Z</time>
      </trkpt>
      <trkpt lat="47.1337" lon="-1.35741">
        <ele>18</ele>
        <time>2016-04-29T00:19:42Z</time>
      </trkpt>
      <trkpt lat="47.13409" lon="-1.35787">
        <ele>17</ele>
        <time>2016-04-29T00:21:42Z</time>
      </trkpt>
      <trkpt lat="47.13474" lon="-1.35874">
        <ele>14</ele>
        <time>2016-04-29T00:23:42Z</time>
      </trkpt>
      <trkpt lat="47.13529" lon="-1.35993">
        <ele>14</ele>
        <time>2016-04-29T00:25:42Z</time>
      </trkpt>
      <trkpt lat="47.13593" lon="-1.36095">
        <ele>12</ele>
        <time>2016-04-29T00:27:42Z</time>
      </trkpt>
      <trkpt lat="47.1359" lon="-1.3624">
        <ele>10</ele>
        <time>2016-04-29T00:29:42Z</time>
      </trkpt>
    </trkseg>
  </trk>
</gpx>